Observation data for Fort McKavett on 07/11/2018      Previous  Date       Current Mesonet Observations  Soil Data  Daily Summary Page  Observations in Plain Language
KMC1 110501Z 16005KT 26/17 A3013 RMK A01 T02550170  RH  059%=      5-min Rain = 0
KMC1 110502Z 17004KT 26/17 A3013 RMK A01 T02550170  RH  059%=      5-min Rain = 0
KMC1 110503Z 16006KT 25/17 A3013 RMK A01 T02540170  RH  059%=      5-min Rain = 0
KMC1 110504Z 15005KT 26/17 A3013 RMK A01 T02550170  RH  060%=      5-min Rain = 0
KMC1 110505Z 16005KT 25/17 A3013 RMK A01 T02540171  RH  060%=      5-min Rain = 0
KMC1 110506Z 16005KT 25/17 A3013 RMK A01 T02530171  RH  060%=      5-min Rain = 0
KMC1 110507Z 15007KT 25/17 A3013 RMK A01 T02530170  RH  060%=      5-min Rain = 0
KMC1 110508Z 16005KT 25/17 A3013 RMK A01 T02530170  RH  060%=      5-min Rain = 0
KMC1 110509Z 16005KT 25/17 A3013 RMK A01 T02540171  RH  060%=      5-min Rain = 0
KMC1 110510Z 16005KT 25/17 A3013 RMK A01 T02530171  RH  060%=      5-min Rain = 0
KMC1 110511Z 16005KT 25/17 A3013 RMK A01 T02530171  RH  060%=      5-min Rain = 0
KMC1 110512Z 16005KT 25/17 A3013 RMK A01 T02520171  RH  061%=      5-min Rain = 0
KMC1 110513Z 16004KT 25/17 A3013 RMK A01 T02520171  RH  061%=      5-min Rain = 0
KMC1 110514Z 16006KT 25/17 A3013 RMK A01 T02520171  RH  061%=      5-min Rain = 0
KMC1 110515Z 16006KT 25/17 A3013 RMK A01 T02520171  RH  061%=      5-min Rain = 0
KMC1 110516Z 17005KT 25/17 A3013 RMK A01 T02510171  RH  061%=      5-min Rain = 0
KMC1 110517Z 16006KT 25/17 A3013 RMK A01 T02510172  RH  061%=      5-min Rain = 0
KMC1 110518Z 16005KT 25/17 A3013 RMK A01 T02510170  RH  061%=      5-min Rain = 0
KMC1 110519Z 16006KT 25/17 A3013 RMK A01 T02510171  RH  061%=      5-min Rain = 0
KMC1 110520Z 17006KT 25/17 A3013 RMK A01 T02510172  RH  061%=      5-min Rain = 0
KMC1 110521Z 16006KT 25/17 A3013 RMK A01 T02510172  RH  062%=      5-min Rain = 0
KMC1 110522Z 16006KT 25/17 A3013 RMK A01 T02510172  RH  062%=      5-min Rain = 0
KMC1 110523Z 16005KT 25/17 A3013 RMK A01 T02510172  RH  062%=      5-min Rain = 0
KMC1 110524Z 16007KT 25/17 A3013 RMK A01 T02510172  RH  062%=      5-min Rain = 0
KMC1 110525Z 16005KT 25/17 A3013 RMK A01 T02510172  RH  062%=      5-min Rain = 0
KMC1 110526Z 16005KT 25/17 A3012 RMK A01 T02510173  RH  062%=      5-min Rain = 0
KMC1 110527Z 16005KT 25/17 A3012 RMK A01 T02500172  RH  062%=      5-min Rain = 0
KMC1 110528Z 16006KT 25/17 A3012 RMK A01 T02500172  RH  062%=      5-min Rain = 0
KMC1 110529Z 16006KT 25/17 A3012 RMK A01 T02500172  RH  062%=      5-min Rain = 0
KMC1 110530Z 16005KT 25/17 A3012 RMK A01 T02500172  RH  062%=      5-min Rain = 0
KMC1 110531Z 16005KT 25/17 A3012 RMK A01 T02500172  RH  062%=      5-min Rain = 0
KMC1 110532Z 17006KT 25/17 A3012 RMK A01 T02500173  RH  062%=      5-min Rain = 0
KMC1 110533Z 16005KT 25/17 A3012 RMK A01 T02500173  RH  062%=      5-min Rain = 0
KMC1 110534Z 16007KT 25/17 A3012 RMK A01 T02500173  RH  062%=      5-min Rain = 0
KMC1 110535Z 16005KT 25/17 A3012 RMK A01 T02500173  RH  062%=      5-min Rain = 0
KMC1 110536Z 16005KT 25/17 A3012 RMK A01 T02490173  RH  063%=      5-min Rain = 0
KMC1 110537Z 16006KT 25/17 A3012 RMK A01 T02500173  RH  062%=      5-min Rain = 0
KMC1 110538Z 16006KT 25/17 A3012 RMK A01 T02490173  RH  063%=      5-min Rain = 0
KMC1 110539Z 16007KT 25/17 A3012 RMK A01 T02490173  RH  062%=      5-min Rain = 0
KMC1 110540Z 16006KT 25/17 A3012 RMK A01 T02490173  RH  062%=      5-min Rain = 0
KMC1 110541Z 16005KT 25/17 A3012 RMK A01 T02500173  RH  062%=      5-min Rain = 0
KMC1 110542Z 16006KT 25/17 A3012 RMK A01 T02490173  RH  063%=      5-min Rain = 0
KMC1 110543Z 16006KT 25/17 A3012 RMK A01 T02490173  RH  062%=      5-min Rain = 0
KMC1 110544Z 17005KT 25/17 A3012 RMK A01 T02500173  RH  062%=      5-min Rain = 0
KMC1 110545Z 17006KT 25/17 A3012 RMK A01 T02490173  RH  062%=      5-min Rain = 0
KMC1 110546Z 17006KT 25/17 A3012 RMK A01 T02500174  RH  063%=      5-min Rain = 0
KMC1 110547Z 16007KT 25/17 A3012 RMK A01 T02490173  RH  063%=      5-min Rain = 0
KMC1 110548Z 16006KT 25/17 A3012 RMK A01 T02500173  RH  062%=      5-min Rain = 0
KMC1 110549Z 16006KT 25/17 A3012 RMK A01 T02500173  RH  062%=      5-min Rain = 0
KMC1 110550Z 16005KT 25/17 A3012 RMK A01 T02500174  RH  063%=      5-min Rain = 0
KMC1 110551Z 16006KT 25/17 A3012 RMK A01 T02500174  RH  063%=      5-min Rain = 0
KMC1 110552Z 17005KT 25/17 A3012 RMK A01 T02490174  RH  063%=      5-min Rain = 0
KMC1 110553Z 16007KT 25/17 A3012 RMK A01 T02490173  RH  063%=      5-min Rain = 0
KMC1 110554Z 16006KT 25/17 A3012 RMK A01 T02490174  RH  063%=      5-min Rain = 0
KMC1 110555Z 16007KT 25/17 A3011 RMK A01 T02490174  RH  063%=      5-min Rain = 0
KMC1 110556Z 16006KT 25/17 A3011 RMK A01 T02490173  RH  063%=      5-min Rain = 0
KMC1 110557Z 17006KT 25/17 A3011 RMK A01 T02480174  RH  063%=      5-min Rain = 0
KMC1 110558Z 16006KT 25/17 A3011 RMK A01 T02490174  RH  063%=      5-min Rain = 0
KMC1 110559Z 16005KT 25/17 A3011 RMK A01 T02480173  RH  063%=      5-min Rain = 0
KMC1 110600Z 16004KT 25/17 A3011 RMK A01 T02480174  RH  063%=      5-min Rain = 0
KMC1 110601Z 16005KT 25/17 A3011 RMK A01 T02480174  RH  064%=      5-min Rain = 0
KMC1 110602Z 16005KT 25/17 A3011 RMK A01 T02470174  RH  064%=      5-min Rain = 0
KMC1 110603Z 16006KT 25/17 A3011 RMK A01 T02470174  RH  064%=      5-min Rain = 0
KMC1 110604Z 16005KT 25/17 A3011 RMK A01 T02470173  RH  064%=      5-min Rain = 0
KMC1 110605Z 16006KT 25/17 A3011 RMK A01 T02470174  RH  064%=      5-min Rain = 0
KMC1 110606Z 16006KT 25/17 A3011 RMK A01 T02470174  RH  064%=      5-min Rain = 0
KMC1 110607Z 17006KT 25/17 A3011 RMK A01 T02470174  RH  064%=      5-min Rain = 0
KMC1 110608Z 16005KT 25/17 A3011 RMK A01 T02470174  RH  064%=      5-min Rain = 0
KMC1 110609Z 17006KT 25/17 A3011 RMK A01 T02470174  RH  064%=      5-min Rain = 0
KMC1 110610Z 17006KT 25/17 A3011 RMK A01 T02460174  RH  064%=      5-min Rain = 0
KMC1 110611Z 17006KT 25/17 A3011 RMK A01 T02460174  RH  064%=      5-min Rain = 0
KMC1 110612Z 17007KT 25/17 A3011 RMK A01 T02460174  RH  064%=      5-min Rain = 0
KMC1 110613Z 17006KT 25/17 A3011 RMK A01 T02460174  RH  064%=      5-min Rain = 0
KMC1 110614Z 17005KT 25/17 A3011 RMK A01 T02460174  RH  064%=      5-min Rain = 0
KMC1 110615Z 17006KT 25/17 A3011 RMK A01 T02460174  RH  064%=      5-min Rain = 0
KMC1 110616Z 17006KT 25/17 A3011 RMK A01 T02460174  RH  064%=      5-min Rain = 0
KMC1 110617Z 17006KT 25/17 A3011 RMK A01 T02450173  RH  064%=      5-min Rain = 0
KMC1 110618Z 17005KT 25/17 A3011 RMK A01 T02450173  RH  064%=      5-min Rain = 0
KMC1 110619Z 17005KT 25/17 A3011 RMK A01 T02450173  RH  064%=      5-min Rain = 0
KMC1 110620Z 16006KT 25/17 A3011 RMK A01 T02450173  RH  064%=      5-min Rain = 0
KMC1 110621Z 16005KT 25/17 A3011 RMK A01 T02450174  RH  064%=      5-min Rain = 0
KMC1 110622Z 17005KT 25/17 A3011 RMK A01 T02450173  RH  064%=      5-min Rain = 0
KMC1 110623Z 17006KT 25/17 A3011 RMK A01 T02450173  RH  064%=      5-min Rain = 0
KMC1 110624Z 16006KT 25/17 A3011 RMK A01 T02450173  RH  064%=      5-min Rain = 0
KMC1 110625Z 17005KT 25/17 A3011 RMK A01 T02450173  RH  064%=      5-min Rain = 0
KMC1 110626Z 16006KT 25/17 A3011 RMK A01 T02450173  RH  064%=      5-min Rain = 0
KMC1 110627Z 16006KT 25/17 A3011 RMK A01 T02450173  RH  064%=      5-min Rain = 0
KMC1 110628Z 16005KT 25/17 A3011 RMK A01 T02450174  RH  064%=      5-min Rain = 0
KMC1 110629Z 18006KT 25/17 A3011 RMK A01 T02450173  RH  064%=      5-min Rain = 0
KMC1 110630Z 17004KT 25/17 A3011 RMK A01 T02450174  RH  064%=      5-min Rain = 0
KMC1 110631Z 17006KT 24/17 A3011 RMK A01 T02440174  RH  065%=      5-min Rain = 0
KMC1 110632Z 18006KT 24/17 A3011 RMK A01 T02440173  RH  065%=      5-min Rain = 0
KMC1 110633Z 17006KT 24/17 A3011 RMK A01 T02440174  RH  065%=      5-min Rain = 0
KMC1 110634Z 17006KT 24/17 A3011 RMK A01 T02440173  RH  065%=      5-min Rain = 0
KMC1 110635Z 17006KT 24/17 A3011 RMK A01 T02440173  RH  065%=      5-min Rain = 0
KMC1 110636Z 17006KT 24/17 A3011 RMK A01 T02440174  RH  065%=      5-min Rain = 0
KMC1 110637Z 17006KT 24/17 A3011 RMK A01 T02440174  RH  065%=      5-min Rain = 0
KMC1 110638Z 17005KT 24/17 A3011 RMK A01 T02440174  RH  065%=      5-min Rain = 0
KMC1 110639Z 17007KT 24/17 A3011 RMK A01 T02430174  RH  065%=      5-min Rain = 0
KMC1 110640Z 17006KT 24/17 A3011 RMK A01 T02430173  RH  065%=      5-min Rain = 0
KMC1 110641Z 16007KT 24/17 A3011 RMK A01 T02430174  RH  065%=      5-min Rain = 0
KMC1 110642Z 17007KT 24/18 A3011 RMK A01 T02430175  RH  066%=      5-min Rain = 0
KMC1 110643Z 16008KT 24/17 A3011 RMK A01 T02430174  RH  065%=      5-min Rain = 0
KMC1 110644Z 17006KT 24/17 A3011 RMK A01 T02430173  RH  065%=      5-min Rain = 0
KMC1 110645Z 17006KT 24/17 A3011 RMK A01 T02430174  RH  065%=      5-min Rain = 0
KMC1 110646Z 17006KT 24/17 A3011 RMK A01 T02430174  RH  065%=      5-min Rain = 0
KMC1 110647Z 17007KT 24/17 A3011 RMK A01 T02430174  RH  065%=      5-min Rain = 0
KMC1 110648Z 17006KT 24/18 A3011 RMK A01 T02430175  RH  066%=      5-min Rain = 0
KMC1 110649Z 16006KT 24/18 A3011 RMK A01 T02430175  RH  066%=      5-min Rain = 0
KMC1 110650Z 17007KT 24/17 A3011 RMK A01 T02430174  RH  066%=      5-min Rain = 0
KMC1 110651Z 17007KT 24/17 A3011 RMK A01 T02430174  RH  066%=      5-min Rain = 0
KMC1 110652Z 17005KT 24/17 A3011 RMK A01 T02430174  RH  066%=      5-min Rain = 0
KMC1 110653Z 17006KT 24/17 A3011 RMK A01 T02430174  RH  066%=      5-min Rain = 0
KMC1 110654Z 16006KT 24/18 A3011 RMK A01 T02430175  RH  066%=      5-min Rain = 0
KMC1 110655Z 17006KT 24/18 A3011 RMK A01 T02420175  RH  066%=      5-min Rain = 0
KMC1 110656Z 16005KT 24/18 A3011 RMK A01 T02420175  RH  066%=      5-min Rain = 0
KMC1 110657Z 17005KT 24/18 A3011 RMK A01 T02420175  RH  066%=      5-min Rain = 0
KMC1 110658Z 17005KT 24/18 A3011 RMK A01 T02410176  RH  067%=      5-min Rain = 0
KMC1 110659Z 17005KT 24/18 A3011 RMK A01 T02410175  RH  067%=      5-min Rain = 0
KMC1 110700Z 16005G10KT 24/18 A3011 RMK A01 T02410176  RH  067%=      5-min Rain = 0
KMC1 110701Z 17005KT 24/18 A3011 RMK A01 T02400175  RH  067%=      5-min Rain = 0
KMC1 110702Z 16006KT 24/18 A3011 RMK A01 T02410175  RH  067%=      5-min Rain = 0
KMC1 110703Z 16005KT 24/18 A3011 RMK A01 T02410176  RH  067%=      5-min Rain = 0
KMC1 110704Z 16006KT 24/18 A3011 RMK A01 T02410176  RH  067%=      5-min Rain = 0
KMC1 110705Z 16006KT 24/18 A3011 RMK A01 T02410176  RH  067%=      5-min Rain = 0
KMC1 110706Z 16005KT 24/18 A3011 RMK A01 T02410177  RH  067%=      5-min Rain = 0
KMC1 110707Z 16008KT 24/18 A3011 RMK A01 T02420177  RH  067%=      5-min Rain = 0
KMC1 110708Z 17007KT 24/18 A3011 RMK A01 T02410177  RH  067%=      5-min Rain = 0
KMC1 110709Z 16005KT 24/18 A3011 RMK A01 T02410177  RH  067%=      5-min Rain = 0
KMC1 110710Z 17006KT 24/18 A3011 RMK A01 T02410177  RH  067%=      5-min Rain = 0
KMC1 110711Z 16004KT 24/18 A3011 RMK A01 T02410177  RH  067%=      5-min Rain = 0
KMC1 110712Z 16005KT 24/18 A3011 RMK A01 T02410178  RH  068%=      5-min Rain = 0
KMC1 110713Z 16005KT 24/18 A3011 RMK A01 T02410178  RH  068%=      5-min Rain = 0
KMC1 110714Z 17005KT 24/18 A3011 RMK A01 T02410178  RH  068%=      5-min Rain = 0
KMC1 110715Z 17004KT 24/18 A3011 RMK A01 T02410178  RH  068%=      5-min Rain = 0
KMC1 110716Z 17007KT 24/18 A3011 RMK A01 T02410179  RH  068%=      5-min Rain = 0
KMC1 110717Z 17006KT 24/18 A3011 RMK A01 T02410179  RH  068%=      5-min Rain = 0
KMC1 110718Z 16005KT 24/18 A3011 RMK A01 T02410178  RH  068%=      5-min Rain = 0
KMC1 110719Z 16005KT 24/18 A3011 RMK A01 T02410179  RH  068%=      5-min Rain = 0
KMC1 110720Z 17004KT 24/18 A3011 RMK A01 T02410179  RH  068%=      5-min Rain = 0
KMC1 110721Z 17006KT 24/18 A3011 RMK A01 T02410179  RH  069%=      5-min Rain = 0
KMC1 110722Z 17005KT 24/18 A3011 RMK A01 T02400179  RH  069%=      5-min Rain = 0
KMC1 110723Z 17005KT 24/18 A3011 RMK A01 T02400179  RH  069%=      5-min Rain = 0
KMC1 110724Z 17004KT 24/18 A3011 RMK A01 T02400180  RH  069%=      5-min Rain = 0
KMC1 110725Z 17005KT 24/18 A3011 RMK A01 T02400180  RH  069%=      5-min Rain = 0
KMC1 110726Z 17004KT 24/18 A3011 RMK A01 T02390180  RH  069%=      5-min Rain = 0
KMC1 110727Z 17004KT 24/18 A3011 RMK A01 T02390180  RH  070%=      5-min Rain = 0
KMC1 110728Z 18005KT 24/18 A3011 RMK A01 T02390181  RH  070%=      5-min Rain = 0
KMC1 110729Z 17006KT 24/18 A3011 RMK A01 T02390181  RH  070%=      5-min Rain = 0
KMC1 110730Z 18006KT 24/18 A3011 RMK A01 T02390181  RH  070%=      5-min Rain = 0
KMC1 110731Z 17005KT 24/18 A3011 RMK A01 T02390181  RH  070%=      5-min Rain = 0
KMC1 110732Z 17005KT 24/18 A3011 RMK A01 T02390181  RH  070%=      5-min Rain = 0
KMC1 110733Z 17005KT 24/18 A3011 RMK A01 T02390181  RH  070%=      5-min Rain = 0
KMC1 110734Z 17005KT 24/18 A3011 RMK A01 T02400182  RH  070%=      5-min Rain = 0
KMC1 110735Z 16005KT 24/18 A3011 RMK A01 T02390182  RH  070%=      5-min Rain = 0
KMC1 110736Z 17005KT 24/18 A3011 RMK A01 T02390183  RH  070%=      5-min Rain = 0
KMC1 110737Z 17006KT 24/18 A3011 RMK A01 T02390183  RH  071%=      5-min Rain = 0
KMC1 110738Z 17005KT 24/18 A3011 RMK A01 T02390183  RH  071%=      5-min Rain = 0
KMC1 110739Z 17006KT 24/18 A3011 RMK A01 T02390183  RH  071%=      5-min Rain = 0
KMC1 110740Z 17006KT 24/18 A3011 RMK A01 T02380183  RH  071%=      5-min Rain = 0
KMC1 110741Z 17006KT 24/18 A3011 RMK A01 T02380183  RH  071%=      5-min Rain = 0
KMC1 110742Z 17005KT 24/18 A3011 RMK A01 T02390183  RH  071%=      5-min Rain = 0
KMC1 110743Z 17006KT 24/18 A3011 RMK A01 T02390184  RH  071%=      5-min Rain = 0
KMC1 110744Z 17004KT 24/18 A3011 RMK A01 T02390184  RH  071%=      5-min Rain = 0
KMC1 110745Z 17004KT 24/18 A3011 RMK A01 T02390184  RH  071%=      5-min Rain = 0
KMC1 110746Z 17005KT 24/18 A3011 RMK A01 T02390184  RH  072%=      5-min Rain = 0
KMC1 110747Z 17007KT 24/19 A3011 RMK A01 T02380185  RH  072%=      5-min Rain = 0
KMC1 110748Z 16005KT 24/19 A3011 RMK A01 T02380185  RH  072%=      5-min Rain = 0
KMC1 110749Z 18003KT 24/19 A3011 RMK A01 T02390185  RH  072%=      5-min Rain = 0
KMC1 110750Z 16005KT 24/19 A3011 RMK A01 T02380185  RH  072%=      5-min Rain = 0
KMC1 110751Z 17004KT 24/19 A3011 RMK A01 T02380185  RH  072%=      5-min Rain = 0
KMC1 110752Z 17005KT 24/19 A3011 RMK A01 T02380185  RH  072%=      5-min Rain = 0
KMC1 110753Z 16004KT 24/19 A3011 RMK A01 T02370185  RH  073%=      5-min Rain = 0
KMC1 110754Z 17004KT 24/19 A3012 RMK A01 T02380186  RH  073%=      5-min Rain = 0
KMC1 110755Z 17005KT 24/19 A3012 RMK A01 T02380186  RH  073%=      5-min Rain = 0
KMC1 110756Z 16005KT 24/19 A3012 RMK A01 T02370186  RH  073%=      5-min Rain = 0
KMC1 110757Z 17005KT 24/19 A3012 RMK A01 T02370186  RH  073%=      5-min Rain = 0
KMC1 110758Z 17005KT 24/19 A3012 RMK A01 T02380187  RH  073%=      5-min Rain = 0
KMC1 110759Z 16004KT 24/19 A3012 RMK A01 T02370187  RH  073%=      5-min Rain = 0
KMC1 110800Z 17004KT 24/19 A3012 RMK A01 T02380187  RH  073%=      5-min Rain = 0
KMC1 110801Z 16004KT 24/19 A3012 RMK A01 T02370187  RH  073%=      5-min Rain = 0
KMC1 110802Z 16004KT 24/19 A3012 RMK A01 T02370187  RH  073%=      5-min Rain = 0
KMC1 110803Z 16003KT 24/19 A3012 RMK A01 T02370187  RH  074%=      5-min Rain = 0
KMC1 110804Z 16003KT 24/19 A3012 RMK A01 T02360187  RH  074%=      5-min Rain = 0
KMC1 110805Z 16005KT 24/19 A3012 RMK A01 T02360187  RH  074%=      5-min Rain = 0
KMC1 110806Z 15004KT 24/19 A3012 RMK A01 T02350187  RH  074%=      5-min Rain = 0
KMC1 110807Z 15003KT 24/19 A3012 RMK A01 T02350188  RH  075%=      5-min Rain = 0
KMC1 110808Z 15004KT 24/19 A3012 RMK A01 T02350188  RH  075%=      5-min Rain = 0
KMC1 110809Z 15003KT 23/19 A3011 RMK A01 T02340188  RH  075%=      5-min Rain = 0
KMC1 110810Z 14003KT 23/19 A3011 RMK A01 T02340188  RH  075%=      5-min Rain = 0
KMC1 110811Z 14003KT 23/19 A3011 RMK A01 T02340188  RH  076%=      5-min Rain = 0
KMC1 110812Z 14005KT 23/19 A3011 RMK A01 T02340189  RH  076%=      5-min Rain = 0
KMC1 110813Z 15004KT 23/19 A3011 RMK A01 T02340189  RH  076%=      5-min Rain = 0
KMC1 110814Z 15005KT 23/19 A3011 RMK A01 T02340189  RH  076%=      5-min Rain = 0
KMC1 110815Z 15004KT 23/19 A3011 RMK A01 T02340189  RH  076%=      5-min Rain = 0
KMC1 110816Z 15005KT 23/19 A3012 RMK A01 T02340189  RH  076%=      5-min Rain = 0
KMC1 110817Z 15004KT 23/19 A3012 RMK A01 T02340189  RH  076%=      5-min Rain = 0
KMC1 110818Z 15004KT 23/19 A3012 RMK A01 T02340189  RH  076%=      5-min Rain = 0
KMC1 110819Z 15003KT 23/19 A3012 RMK A01 T02330190  RH  076%=      5-min Rain = 0
KMC1 110820Z 16004KT 23/19 A3012 RMK A01 T02330190  RH  077%=      5-min Rain = 0
KMC1 110821Z 16004KT 23/19 A3012 RMK A01 T02330190  RH  077%=      5-min Rain = 0
KMC1 110822Z 15004KT 23/19 A3012 RMK A01 T02320190  RH  077%=      5-min Rain = 0
KMC1 110823Z 16004KT 23/19 A3011 RMK A01 T02330190  RH  077%=      5-min Rain = 0
KMC1 110824Z 15005KT 23/19 A3011 RMK A01 T02330190  RH  077%=      5-min Rain = 0
KMC1 110825Z 16003KT 23/19 A3011 RMK A01 T02330190  RH  077%=      5-min Rain = 0
KMC1 110826Z 16004KT 23/19 A3011 RMK A01 T02330191  RH  077%=      5-min Rain = 0
KMC1 110827Z 15003KT 23/19 A3012 RMK A01 T02330190  RH  077%=      5-min Rain = 0
KMC1 110828Z 17005KT 23/19 A3012 RMK A01 T02330191  RH  077%=      5-min Rain = 0
KMC1 110829Z 16004KT 23/19 A3012 RMK A01 T02330191  RH  077%=      5-min Rain = 0
KMC1 110830Z 17003KT 23/19 A3012 RMK A01 T02330192  RH  078%=      5-min Rain = 0
KMC1 110831Z 16004KT 23/19 A3012 RMK A01 T02330192  RH  078%=      5-min Rain = 0
KMC1 110832Z 16005KT 23/19 A3012 RMK A01 T02330192  RH  078%=      5-min Rain = 0
KMC1 110833Z 17003KT 23/19 A3012 RMK A01 T02320191  RH  078%=      5-min Rain = 0
KMC1 110834Z 17003KT 23/19 A3012 RMK A01 T02330191  RH  078%=      5-min Rain = 0
KMC1 110835Z 16004KT 23/19 A3012 RMK A01 T02320191  RH  078%=      5-min Rain = 0
KMC1 110836Z 16003KT 23/19 A3012 RMK A01 T02320191  RH  078%=      5-min Rain = 0
KMC1 110837Z 17004KT 23/19 A3012 RMK A01 T02320192  RH  078%=      5-min Rain = 0
KMC1 110838Z 17005KT 23/19 A3012 RMK A01 T02320192  RH  078%=      5-min Rain = 0
KMC1 110839Z 17003KT 23/19 A3012 RMK A01 T02330192  RH  078%=      5-min Rain = 0
KMC1 110840Z 17003KT 23/19 A3012 RMK A01 T02330192  RH  078%=      5-min Rain = 0
KMC1 110841Z 17004KT 23/19 A3012 RMK A01 T02320192  RH  078%=      5-min Rain = 0
KMC1 110842Z 17003KT 23/19 A3012 RMK A01 T02330193  RH  078%=      5-min Rain = 0
KMC1 110843Z 18003KT 23/19 A3012 RMK A01 T02330193  RH  078%=      5-min Rain = 0
KMC1 110844Z 17002KT 23/19 A3012 RMK A01 T02320192  RH  078%=      5-min Rain = 0
KMC1 110845Z 18004KT 23/19 A3012 RMK A01 T02320193  RH  078%=      5-min Rain = 0
KMC1 110846Z 16003KT 23/19 A3012 RMK A01 T02320193  RH  079%=      5-min Rain = 0
KMC1 110847Z 17002KT 23/19 A3012 RMK A01 T02320192  RH  079%=      5-min Rain = 0
KMC1 110848Z 18003KT 23/19 A3012 RMK A01 T02320193  RH  079%=      5-min Rain = 0
KMC1 110849Z 17004KT 23/19 A3012 RMK A01 T02320193  RH  079%=      5-min Rain = 0
KMC1 110850Z 17002KT 23/19 A3012 RMK A01 T02310193  RH  079%=      5-min Rain = 0
KMC1 110851Z 17002KT 23/19 A3012 RMK A01 T02310193  RH  079%=      5-min Rain = 0
KMC1 110852Z 16002KT 23/19 A3012 RMK A01 T02300193  RH  079%=      5-min Rain = 0
KMC1 110853Z 17003KT 23/19 A3012 RMK A01 T02300193  RH  080%=      5-min Rain = 0
KMC1 110854Z 17002KT 23/19 A3012 RMK A01 T02290193  RH  080%=      5-min Rain = 0
KMC1 110855Z 16002KT 23/19 A3012 RMK A01 T02290193  RH  080%=      5-min Rain = 0
KMC1 110856Z 16003KT 23/19 A3012 RMK A01 T02290193  RH  080%=      5-min Rain = 0
KMC1 110857Z 16002KT 23/19 A3012 RMK A01 T02290193  RH  080%=      5-min Rain = 0
KMC1 110858Z 17003KT 23/19 A3012 RMK A01 T02290193  RH  080%=      5-min Rain = 0
KMC1 110859Z 17002KT 23/19 A3012 RMK A01 T02290193  RH  080%=      5-min Rain = 0
KMC1 110900Z 17003KT 23/19 A3012 RMK A01 T02290193  RH  080%=      5-min Rain = 0
KMC1 110901Z 16002KT 23/19 A3012 RMK A01 T02280193  RH  081%=      5-min Rain = 0
KMC1 110902Z 17002KT 23/19 A3011 RMK A01 T02270193  RH  081%=      5-min Rain = 0
KMC1 110903Z 16003KT 23/19 A3011 RMK A01 T02270193  RH  081%=      5-min Rain = 0
KMC1 110904Z 17003KT 23/19 A3011 RMK A01 T02270193  RH  081%=      5-min Rain = 0
KMC1 110905Z 17002KT 23/19 A3011 RMK A01 T02270194  RH  081%=      5-min Rain = 0
KMC1 110906Z 15003KT 23/19 A3011 RMK A01 T02270193  RH  081%=      5-min Rain = 0
KMC1 110907Z 15003KT 23/19 A3011 RMK A01 T02270193  RH  081%=      5-min Rain = 0
KMC1 110908Z 16003KT 23/19 A3011 RMK A01 T02270193  RH  082%=      5-min Rain = 0
KMC1 110909Z 16003KT 23/19 A3011 RMK A01 T02260193  RH  082%=      5-min Rain = 0
KMC1 110910Z 15003KT 23/19 A3011 RMK A01 T02260193  RH  082%=      5-min Rain = 0
KMC1 110911Z 16003KT 23/19 A3011 RMK A01 T02260193  RH  082%=      5-min Rain = 0
KMC1 110912Z 16003KT 23/19 A3011 RMK A01 T02250193  RH  082%=      5-min Rain = 0
KMC1 110913Z 17003KT 23/19 A3011 RMK A01 T02250193  RH  082%=      5-min Rain = 0
KMC1 110914Z 17003KT 23/19 A3011 RMK A01 T02250193  RH  082%=      5-min Rain = 0
KMC1 110915Z 17003KT 22/19 A3011 RMK A01 T02240193  RH  083%=      5-min Rain = 0
KMC1 110916Z 17003KT 22/19 A3011 RMK A01 T02240194  RH  083%=      5-min Rain = 0
KMC1 110917Z 16004KT 22/19 A3011 RMK A01 T02240193  RH  083%=      5-min Rain = 0
KMC1 110918Z 16004KT 22/19 A3011 RMK A01 T02240194  RH  083%=      5-min Rain = 0
KMC1 110919Z 16003KT 22/19 A3011 RMK A01 T02240194  RH  083%=      5-min Rain = 0
KMC1 110920Z 16003KT 22/19 A3011 RMK A01 T02240193  RH  083%=      5-min Rain = 0
KMC1 110921Z 15003KT 22/19 A3011 RMK A01 T02240193  RH  083%=      5-min Rain = 0
KMC1 110922Z 16004KT 22/19 A3011 RMK A01 T02240194  RH  083%=      5-min Rain = 0
KMC1 110923Z 16004KT 22/19 A3011 RMK A01 T02240193  RH  083%=      5-min Rain = 0
KMC1 110924Z 16004KT 22/19 A3011 RMK A01 T02230194  RH  083%=      5-min Rain = 0
KMC1 110925Z 16004KT 22/19 A3011 RMK A01 T02230194  RH  083%=      5-min Rain = 0
KMC1 110926Z 16004KT 22/19 A3011 RMK A01 T02230194  RH  084%=      5-min Rain = 0
KMC1 110927Z 16004KT 22/19 A3011 RMK A01 T02220194  RH  084%=      5-min Rain = 0
KMC1 110928Z 16004KT 22/19 A3011 RMK A01 T02220194  RH  084%=      5-min Rain = 0
KMC1 110929Z 16004KT 22/19 A3011 RMK A01 T02220194  RH  084%=      5-min Rain = 0
KMC1 110930Z 17004KT 22/19 A3011 RMK A01 T02220194  RH  084%=      5-min Rain = 0
KMC1 110931Z 17004KT 22/19 A3011 RMK A01 T02220194  RH  084%=      5-min Rain = 0
KMC1 110932Z 17004KT 22/19 A3011 RMK A01 T02220194  RH  084%=      5-min Rain = 0
KMC1 110933Z 17004KT 22/19 A3011 RMK A01 T02220193  RH  084%=      5-min Rain = 0
KMC1 110934Z 17004KT 22/19 A3012 RMK A01 T02220194  RH  084%=      5-min Rain = 0
KMC1 110935Z 17005KT 22/19 A3012 RMK A01 T02220194  RH  084%=      5-min Rain = 0
KMC1 110936Z 17004KT 22/19 A3012 RMK A01 T02220194  RH  084%=      5-min Rain = 0
KMC1 110937Z 16004KT 22/19 A3012 RMK A01 T02220194  RH  084%=      5-min Rain = 0
KMC1 110938Z 16004KT 22/19 A3012 RMK A01 T02220194  RH  084%=      5-min Rain = 0
KMC1 110939Z 16005KT 22/19 A3011 RMK A01 T02220194  RH  084%=      5-min Rain = 0
KMC1 110940Z 16004KT 22/19 A3012 RMK A01 T02220194  RH  084%=      5-min Rain = 0
KMC1 110941Z 17004KT 22/19 A3012 RMK A01 T02220194  RH  084%=      5-min Rain = 0
KMC1 110942Z 16004KT 22/19 A3012 RMK A01 T02210194  RH  084%=      5-min Rain = 0
KMC1 110943Z 17005KT 22/19 A3012 RMK A01 T02220194  RH  085%=      5-min Rain = 0
KMC1 110944Z 16004KT 22/19 A3012 RMK A01 T02210194  RH  085%=      5-min Rain = 0
KMC1 110945Z 16004KT 22/19 A3012 RMK A01 T02210194  RH  085%=      5-min Rain = 0
KMC1 110946Z 17004KT 22/20 A3012 RMK A01 T02220195  RH  085%=      5-min Rain = 0
KMC1 110947Z 16004KT 22/20 A3011 RMK A01 T02220195  RH  085%=      5-min Rain = 0
KMC1 110948Z 17003KT 22/20 A3011 RMK A01 T02210195  RH  085%=      5-min Rain = 0
KMC1 110949Z 16003KT 22/20 A3011 RMK A01 T02210195  RH  085%=      5-min Rain = 0
KMC1 110950Z 16004KT 22/20 A3011 RMK A01 T02210195  RH  085%=      5-min Rain = 0
KMC1 110951Z 16004KT 22/20 A3011 RMK A01 T02210195  RH  085%=      5-min Rain = 0
KMC1 110952Z 16004KT 22/20 A3011 RMK A01 T02210195  RH  085%=      5-min Rain = 0
KMC1 110953Z 16003KT 22/20 A3011 RMK A01 T02210195  RH  086%=      5-min Rain = 0
KMC1 110954Z 17004KT 22/20 A3011 RMK A01 T02210196  RH  086%=      5-min Rain = 0
KMC1 110955Z 16004KT 22/20 A3012 RMK A01 T02210195  RH  086%=      5-min Rain = 0
KMC1 110956Z 16004KT 22/20 A3012 RMK A01 T02210195  RH  086%=      5-min Rain = 0
KMC1 110957Z 15004KT 22/20 A3012 RMK A01 T02210196  RH  086%=      5-min Rain = 0
KMC1 110958Z 15004KT 22/20 A3012 RMK A01 T02210196  RH  086%=      5-min Rain = 0
KMC1 110959Z 15004KT 22/20 A3012 RMK A01 T02200196  RH  086%=      5-min Rain = 0
KMC1 111000Z 16003KT 22/20 A3012 RMK A01 T02200195  RH  086%=      5-min Rain = 0
KMC1 111001Z 15004KT 22/20 A3012 RMK A01 T02200196  RH  086%=      5-min Rain = 0
KMC1 111002Z 15004KT 22/20 A3012 RMK A01 T02200196  RH  086%=      5-min Rain = 0
KMC1 111003Z 16005KT 22/20 A3012 RMK A01 T02200196  RH  086%=      5-min Rain = 0
KMC1 111004Z 16004KT 22/20 A3012 RMK A01 T02200196  RH  086%=      5-min Rain = 0
KMC1 111005Z 16004KT 22/20 A3012 RMK A01 T02200196  RH  086%=      5-min Rain = 0
KMC1 111006Z 16004KT 22/20 A3012 RMK A01 T02200196  RH  086%=      5-min Rain = 0
KMC1 111007Z 15003KT 22/20 A3012 RMK A01 T02200196  RH  086%=      5-min Rain = 0
KMC1 111008Z 16004KT 22/20 A3012 RMK A01 T02200196  RH  086%=      5-min Rain = 0
KMC1 111009Z 16005KT 22/20 A3012 RMK A01 T02200197  RH  087%=      5-min Rain = 0
KMC1 111010Z 16004KT 22/20 A3012 RMK A01 T02200197  RH  087%=      5-min Rain = 0
KMC1 111011Z 17004KT 22/20 A3012 RMK A01 T02200196  RH  087%=      5-min Rain = 0
KMC1 111012Z 17004KT 22/20 A3012 RMK A01 T02200196  RH  087%=      5-min Rain = 0
KMC1 111013Z 17004KT 22/20 A3012 RMK A01 T02200197  RH  087%=      5-min Rain = 0
KMC1 111014Z 17005KT 22/20 A3012 RMK A01 T02200197  RH  087%=      5-min Rain = 0
KMC1 111015Z 17005KT 22/20 A3012 RMK A01 T02200197  RH  087%=      5-min Rain = 0
KMC1 111016Z 17005KT 22/20 A3012 RMK A01 T02200197  RH  087%=      5-min Rain = 0
KMC1 111017Z 17004KT 22/20 A3012 RMK A01 T02200197  RH  087%=      5-min Rain = 0
KMC1 111018Z 17005KT 22/20 A3012 RMK A01 T02200197  RH  087%=      5-min Rain = 0
KMC1 111019Z 17003KT 22/20 A3012 RMK A01 T02210198  RH  087%=      5-min Rain = 0
KMC1 111020Z 17004KT 22/20 A3012 RMK A01 T02210198  RH  087%=      5-min Rain = 0
KMC1 111021Z 17004KT 22/20 A3012 RMK A01 T02210198  RH  087%=      5-min Rain = 0
KMC1 111022Z 18003KT 22/20 A3012 RMK A01 T02210198  RH  087%=      5-min Rain = 0
KMC1 111023Z 18002KT 22/20 A3012 RMK A01 T02210198  RH  087%=      5-min Rain = 0
KMC1 111024Z 18004KT 22/20 A3012 RMK A01 T02200198  RH  087%=      5-min Rain = 0
KMC1 111025Z 18002KT 22/20 A3012 RMK A01 T02200198  RH  087%=      5-min Rain = 0
KMC1 111026Z 19003KT 22/20 A3012 RMK A01 T02200198  RH  087%=      5-min Rain = 0
KMC1 111027Z 19003KT 22/20 A3012 RMK A01 T02200198  RH  087%=      5-min Rain = 0
KMC1 111028Z 20002KT 22/20 A3012 RMK A01 T02200199  RH  088%=      5-min Rain = 0
KMC1 111029Z 21003KT 22/20 A3012 RMK A01 T02200199  RH  088%=      5-min Rain = 0
KMC1 111030Z 20002KT 22/20 A3012 RMK A01 T02200199  RH  088%=      5-min Rain = 0
KMC1 111031Z 21002KT 22/20 A3012 RMK A01 T02200199  RH  088%=      5-min Rain = 0
KMC1 111032Z 21002KT 22/20 A3012 RMK A01 T02200199  RH  088%=      5-min Rain = 0
KMC1 111033Z 20002KT 22/20 A3012 RMK A01 T02200199  RH  088%=      5-min Rain = 0
KMC1 111034Z 20002KT 22/20 A3012 RMK A01 T02190198  RH  088%=      5-min Rain = 0
KMC1 111035Z 19001KT 22/20 A3012 RMK A01 T02190198  RH  088%=      5-min Rain = 0
KMC1 111036Z 20001KT 22/20 A3012 RMK A01 T02190199  RH  088%=      5-min Rain = 0
KMC1 111037Z 18001KT 22/20 A3012 RMK A01 T02190199  RH  088%=      5-min Rain = 0
KMC1 111038Z 19001KT 22/20 A3012 RMK A01 T02190199  RH  088%=      5-min Rain = 0
KMC1 111039Z 18002KT 22/20 A3012 RMK A01 T02190199  RH  088%=      5-min Rain = 0
KMC1 111040Z 18001KT 22/20 A3012 RMK A01 T02190199  RH  088%=      5-min Rain = 0
KMC1 111041Z 17003KT 22/20 A3012 RMK A01 T02180199  RH  089%=      5-min Rain = 0
KMC1 111042Z 18003KT 22/20 A3012 RMK A01 T02180199  RH  089%=      5-min Rain = 0
KMC1 111043Z 17004KT 22/20 A3012 RMK A01 T02180199  RH  089%=      5-min Rain = 0
KMC1 111044Z 17003KT 22/20 A3012 RMK A01 T02180199  RH  089%=      5-min Rain = 0
KMC1 111045Z 17003KT 22/20 A3012 RMK A01 T02180199  RH  089%=      5-min Rain = 0
KMC1 111046Z 17003KT 22/20 A3012 RMK A01 T02180199  RH  089%=      5-min Rain = 0
KMC1 111047Z 17003KT 22/20 A3012 RMK A01 T02180199  RH  089%=      5-min Rain = 0
KMC1 111048Z 16003KT 22/20 A3012 RMK A01 T02180199  RH  089%=      5-min Rain = 0
KMC1 111049Z 17003KT 22/20 A3012 RMK A01 T02180199  RH  089%=      5-min Rain = 0
KMC1 111050Z 16004KT 22/20 A3012 RMK A01 T02180199  RH  089%=      5-min Rain = 0
KMC1 111051Z 17003KT 22/20 A3012 RMK A01 T02180199  RH  089%=      5-min Rain = 0
KMC1 111052Z 16003KT 22/20 A3012 RMK A01 T02180199  RH  089%=      5-min Rain = 0
KMC1 111053Z 17003KT 22/20 A3012 RMK A01 T02180200  RH  089%=      5-min Rain = 0
KMC1 111054Z 17003KT 22/20 A3012 RMK A01 T02180200  RH  089%=      5-min Rain = 0
KMC1 111055Z 16004KT 22/20 A3012 RMK A01 T02180200  RH  089%=      5-min Rain = 0
KMC1 111056Z 16003KT 22/20 A3012 RMK A01 T02180200  RH  089%=      5-min Rain = 0
KMC1 111057Z 17002KT 22/20 A3012 RMK A01 T02180200  RH  090%=      5-min Rain = 0
KMC1 111058Z 16004KT 22/20 A3012 RMK A01 T02170200  RH  090%=      5-min Rain = 0
KMC1 111059Z 17004KT 22/20 A3012 RMK A01 T02170200  RH  090%=      5-min Rain = 0
KMC1 111100Z 16004KT 22/20 A3012 RMK A01 T02170200  RH  090%=      5-min Rain = 0
KMC1 111101Z 17004KT 22/20 A3012 RMK A01 T02170200  RH  090%=      5-min Rain = 0
KMC1 111102Z 17004KT 22/20 A3012 RMK A01 T02170200  RH  090%=      5-min Rain = 0
KMC1 111103Z 17005KT 22/20 A3012 RMK A01 T02170200  RH  090%=      5-min Rain = 0
KMC1 111104Z 17004KT 22/20 A3012 RMK A01 T02180200  RH  090%=      5-min Rain = 0
KMC1 111105Z 17004KT 22/20 A3012 RMK A01 T02170200  RH  090%=      5-min Rain = 0
KMC1 111106Z 18003KT 22/20 A3012 RMK A01 T02180200  RH  090%=      5-min Rain = 0
KMC1 111107Z 19003KT 22/20 A3012 RMK A01 T02180201  RH  090%=      5-min Rain = 0
KMC1 111108Z 17003KT 22/20 A3012 RMK A01 T02170200  RH  090%=      5-min Rain = 0
KMC1 111109Z 18002KT 22/20 A3012 RMK A01 T02170200  RH  090%=      5-min Rain = 0
KMC1 111110Z 18004KT 22/20 A3012 RMK A01 T02180201  RH  090%=      5-min Rain = 0
KMC1 111111Z 19003KT 22/20 A3012 RMK A01 T02170200  RH  090%=      5-min Rain = 0
KMC1 111112Z 17004KT 22/20 A3012 RMK A01 T02170201  RH  090%=      5-min Rain = 0
KMC1 111113Z 20003KT 22/20 A3012 RMK A01 T02180201  RH  090%=      5-min Rain = 0
KMC1 111114Z 19002KT 22/20 A3012 RMK A01 T02180201  RH  090%=      5-min Rain = 0
KMC1 111115Z 20002KT 22/20 A3012 RMK A01 T02180201  RH  090%=      5-min Rain = 0
KMC1 111116Z 19002KT 22/20 A3012 RMK A01 T02180201  RH  090%=      5-min Rain = 0
KMC1 111117Z 19002KT 22/20 A3012 RMK A01 T02180201  RH  090%=      5-min Rain = 0
KMC1 111118Z 19002KT 22/20 A3012 RMK A01 T02170200  RH  090%=      5-min Rain = 0
KMC1 111119Z 19002KT 22/20 A3012 RMK A01 T02180201  RH  090%=      5-min Rain = 0
KMC1 111120Z 20002KT 22/20 A3012 RMK A01 T02170200  RH  090%=      5-min Rain = 0
KMC1 111121Z 21001KT 22/20 A3012 RMK A01 T02170200  RH  090%=      5-min Rain = 0
KMC1 111122Z 22001KT 22/20 A3012 RMK A01 T02170201  RH  091%=      5-min Rain = 0
KMC1 111123Z 22002KT 22/20 A3012 RMK A01 T02160200  RH  091%=      5-min Rain = 0
KMC1 111124Z 23002KT 22/20 A3012 RMK A01 T02160200  RH  091%=      5-min Rain = 0
KMC1 111125Z 26001KT 22/20 A3012 RMK A01 T02160200  RH  091%=      5-min Rain = 0
KMC1 111126Z 26002KT 22/20 A3012 RMK A01 T02160200  RH  091%=      5-min Rain = 0
KMC1 111127Z 26002KT 22/20 A3012 RMK A01 T02150200  RH  091%=      5-min Rain = 0
KMC1 111128Z 29001KT 22/20 A3013 RMK A01 T02150200  RH  091%=      5-min Rain = 0
KMC1 111129Z 29002KT 21/20 A3013 RMK A01 T02140200  RH  091%=      5-min Rain = 0
KMC1 111130Z 30001KT 22/20 A3013 RMK A01 T02150200  RH  092%=      5-min Rain = 0
KMC1 111131Z 31002KT 21/20 A3013 RMK A01 T02140200  RH  092%=      5-min Rain = 0
KMC1 111132Z 33001KT 21/20 A3013 RMK A01 T02140200  RH  092%=      5-min Rain = 0
KMC1 111133Z 32001KT 21/20 A3013 RMK A01 T02130200  RH  092%=      5-min Rain = 0
KMC1 111134Z 32001KT 21/20 A3013 RMK A01 T02130200  RH  092%=      5-min Rain = 0
KMC1 111135Z 33001KT 21/20 A3013 RMK A01 T02130199  RH  092%=      5-min Rain = 0
KMC1 111136Z 32001KT 21/20 A3013 RMK A01 T02120199  RH  092%=      5-min Rain = 0
KMC1 111137Z 32001KT 21/20 A3013 RMK A01 T02120199  RH  093%=      5-min Rain = 0
KMC1 111138Z 30000KT 21/20 A3013 RMK A01 T02120200  RH  093%=      5-min Rain = 0
KMC1 111139Z 22000KT 21/20 A3013 RMK A01 T02110200  RH  093%=      5-min Rain = 0
KMC1 111140Z 23001KT 21/20 A3013 RMK A01 T02110200  RH  093%=      5-min Rain = 0
KMC1 111141Z 23000KT 21/20 A3013 RMK A01 T02110200  RH  093%=      5-min Rain = 0
KMC1 111142Z 24001KT 21/20 A3013 RMK A01 T02120200  RH  093%=      5-min Rain = 0
KMC1 111143Z 22001KT 21/20 A3013 RMK A01 T02110199  RH  093%=      5-min Rain = 0
KMC1 111144Z 21002KT 21/20 A3013 RMK A01 T02110199  RH  093%=      5-min Rain = 0
KMC1 111145Z 20002KT 21/20 A3013 RMK A01 T02110200  RH  093%=      5-min Rain = 0
KMC1 111146Z 19002KT 21/20 A3013 RMK A01 T02110200  RH  093%=      5-min Rain = 0
KMC1 111147Z 20002KT 21/20 A3013 RMK A01 T02110200  RH  093%=      5-min Rain = 0
KMC1 111148Z 20002KT 21/20 A3013 RMK A01 T02110200  RH  093%=      5-min Rain = 0
KMC1 111149Z 20002KT 21/20 A3013 RMK A01 T02110200  RH  093%=      5-min Rain = 0
KMC1 111150Z 19002KT 21/20 A3013 RMK A01 T02110200  RH  093%=      5-min Rain = 0
KMC1 111151Z 19003KT 21/20 A3013 RMK A01 T02110200  RH  093%=      5-min Rain = 0
KMC1 111152Z 19003KT 21/20 A3013 RMK A01 T02110200  RH  093%=      5-min Rain = 0
KMC1 111153Z 18003KT 21/20 A3013 RMK A01 T02110200  RH  093%=      5-min Rain = 0
KMC1 111154Z 18003KT 21/20 A3013 RMK A01 T02110200  RH  093%=      5-min Rain = 0
KMC1 111155Z 19003KT 21/20 A3013 RMK A01 T02120200  RH  093%=      5-min Rain = 0
KMC1 111156Z 19003KT 21/20 A3013 RMK A01 T02120200  RH  093%=      5-min Rain = 0
KMC1 111157Z 19003KT 21/20 A3013 RMK A01 T02120201  RH  093%=      5-min Rain = 0
KMC1 111158Z 19003KT 21/20 A3013 RMK A01 T02120201  RH  093%=      5-min Rain = 0
KMC1 111159Z 19003KT 21/20 A3013 RMK A01 T02120200  RH  093%=      5-min Rain = 0
KMC1 111200Z 20003KT 21/20 A3013 RMK A01 T02120201  RH  093%=      5-min Rain = 0
KMC1 111201Z 20003KT 21/20 A3013 RMK A01 T02120201  RH  093%=      5-min Rain = 0
KMC1 111202Z 19003KT 21/20 A3013 RMK A01 T02120200  RH  093%=      5-min Rain = 0
KMC1 111203Z 19003KT 21/20 A3013 RMK A01 T02130201  RH  093%=      5-min Rain = 0
KMC1 111204Z 19003KT 21/20 A3013 RMK A01 T02120201  RH  093%=      5-min Rain = 0
KMC1 111205Z 19003KT 21/20 A3013 RMK A01 T02120201  RH  093%=      5-min Rain = 0
KMC1 111206Z 19003KT 21/20 A3013 RMK A01 T02130201  RH  093%=      5-min Rain = 0
KMC1 111207Z 19003KT 21/20 A3013 RMK A01 T02120201  RH  093%=      5-min Rain = 0
KMC1 111208Z 19003KT 21/20 A3013 RMK A01 T02130201  RH  093%=      5-min Rain = 0
KMC1 111209Z 19003KT 21/20 A3013 RMK A01 T02120201  RH  093%=      5-min Rain = 0
KMC1 111210Z 19003KT 21/20 A3013 RMK A01 T02120201  RH  093%=      5-min Rain = 0
KMC1 111211Z 19003KT 21/20 A3013 RMK A01 T02130202  RH  093%=      5-min Rain = 0
KMC1 111212Z 18003KT 21/20 A3013 RMK A01 T02130201  RH  093%=      5-min Rain = 0
KMC1 111213Z 19003KT 21/20 A3013 RMK A01 T02130201  RH  093%=      5-min Rain = 0
KMC1 111214Z 19003KT 21/20 A3013 RMK A01 T02130202  RH  093%=      5-min Rain = 0
KMC1 111215Z 19003KT 21/20 A3013 RMK A01 T02130202  RH  093%=      5-min Rain = 0
KMC1 111216Z 19002KT 21/20 A3013 RMK A01 T02130202  RH  093%=      5-min Rain = 0
KMC1 111217Z 19003KT 21/20 A3013 RMK A01 T02140202  RH  093%=      5-min Rain = 0
KMC1 111218Z 19003KT 21/20 A3013 RMK A01 T02140202  RH  093%=      5-min Rain = 0
KMC1 111219Z 19003KT 21/20 A3013 RMK A01 T02140202  RH  093%=      5-min Rain = 0
KMC1 111220Z 18002KT 21/20 A3013 RMK A01 T02140202  RH  093%=      5-min Rain = 0
KMC1 111221Z 18003KT 22/20 A3014 RMK A01 T02150202  RH  093%=      5-min Rain = 0
KMC1 111222Z 19002KT 22/20 A3014 RMK A01 T02150202  RH  092%=      5-min Rain = 0
KMC1 111223Z 19002KT 22/20 A3014 RMK A01 T02150202  RH  092%=      5-min Rain = 0
KMC1 111224Z 19003KT 22/20 A3014 RMK A01 T02150203  RH  092%=      5-min Rain = 0
KMC1 111225Z 19002KT 22/20 A3014 RMK A01 T02150203  RH  092%=      5-min Rain = 0
KMC1 111226Z 18002KT 22/20 A3014 RMK A01 T02160203  RH  092%=      5-min Rain = 0
KMC1 111227Z 18003KT 22/20 A3014 RMK A01 T02160203  RH  092%=      5-min Rain = 0
KMC1 111228Z 19003KT 22/20 A3014 RMK A01 T02170204  RH  092%=      5-min Rain = 0
KMC1 111229Z 20002KT 22/20 A3014 RMK A01 T02170203  RH  092%=      5-min Rain = 0
KMC1 111230Z 21003KT 22/20 A3014 RMK A01 T02170204  RH  092%=      5-min Rain = 0
KMC1 111231Z 21002KT 22/20 A3014 RMK A01 T02180204  RH  092%=      5-min Rain = 0
KMC1 111232Z 22003KT 22/20 A3014 RMK A01 T02180204  RH  092%=      5-min Rain = 0
KMC1 111233Z 22002KT 22/20 A3014 RMK A01 T02190204  RH  091%=      5-min Rain = 0
KMC1 111234Z 22002KT 22/20 A3014 RMK A01 T02190204  RH  091%=      5-min Rain = 0
KMC1 111235Z 22002KT 22/20 A3014 RMK A01 T02190204  RH  091%=      5-min Rain = 0
KMC1 111236Z 21002KT 22/20 A3014 RMK A01 T02190204  RH  091%=      5-min Rain = 0
KMC1 111237Z 22001KT 22/20 A3014 RMK A01 T02200204  RH  091%=      5-min Rain = 0
KMC1 111238Z 21001KT 22/21 A3014 RMK A01 T02200205  RH  091%=      5-min Rain = 0
KMC1 111239Z 25001KT 22/21 A3014 RMK A01 T02210205  RH  091%=      5-min Rain = 0
KMC1 111240Z 19002KT 22/21 A3014 RMK A01 T02210205  RH  091%=      5-min Rain = 0
KMC1 111241Z 18001KT 22/21 A3014 RMK A01 T02210205  RH  090%=      5-min Rain = 0
KMC1 111242Z 21001KT 22/20 A3014 RMK A01 T02220204  RH  090%=      5-min Rain = 0
KMC1 111243Z 18002KT 22/20 A3014 RMK A01 T02220204  RH  090%=      5-min Rain = 0
KMC1 111244Z 21002KT 22/21 A3014 RMK A01 T02220205  RH  090%=      5-min Rain = 0
KMC1 111245Z 21002KT 22/21 A3014 RMK A01 T02230205  RH  090%=      5-min Rain = 0
KMC1 111246Z 23002KT 22/21 A3014 RMK A01 T02230206  RH  090%=      5-min Rain = 0
KMC1 111247Z 26002KT 22/21 A3014 RMK A01 T02240206  RH  089%=      5-min Rain = 0
KMC1 111248Z 27002KT 23/21 A3014 RMK A01 T02250206  RH  089%=      5-min Rain = 0
KMC1 111249Z 29002KT 23/21 A3014 RMK A01 T02250206  RH  089%=      5-min Rain = 0
KMC1 111250Z 31001KT 23/21 A3014 RMK A01 T02250205  RH  089%=      5-min Rain = 0
KMC1 111251Z 30001KT 23/21 A3014 RMK A01 T02250205  RH  089%=      5-min Rain = 0
KMC1 111252Z 30003KT 23/21 A3014 RMK A01 T02250205  RH  089%=      5-min Rain = 0
KMC1 111253Z 30002KT 23/21 A3014 RMK A01 T02250205  RH  089%=      5-min Rain = 0
KMC1 111254Z 29001KT 23/21 A3014 RMK A01 T02250205  RH  089%=      5-min Rain = 0
KMC1 111255Z 30001KT 23/21 A3014 RMK A01 T02250206  RH  089%=      5-min Rain = 0
KMC1 111256Z 31002KT 23/21 A3014 RMK A01 T02250205  RH  089%=      5-min Rain = 0
KMC1 111257Z 31002KT 23/21 A3014 RMK A01 T02250205  RH  088%=      5-min Rain = 0
KMC1 111258Z 27001KT 23/21 A3014 RMK A01 T02260205  RH  088%=      5-min Rain = 0
KMC1 111259Z 30001KT 23/21 A3014 RMK A01 T02260205  RH  088%=      5-min Rain = 0
KMC1 111300Z 27001KT 23/21 A3015 RMK A01 T02270206  RH  088%=      5-min Rain = 0
KMC1 111301Z 23000KT 23/21 A3015 RMK A01 T02280206  RH  087%=      5-min Rain = 0
KMC1 111302Z 21002KT 23/21 A3015 RMK A01 T02280207  RH  088%=      5-min Rain = 0
KMC1 111303Z 21001KT 23/21 A3015 RMK A01 T02290206  RH  087%=      5-min Rain = 0
KMC1 111304Z 34000KT 23/21 A3015 RMK A01 T02300206  RH  086%=      5-min Rain = 0
KMC1 111305Z 26000KT 23/21 A3014 RMK A01 T02310206  RH  086%=      5-min Rain = 0
KMC1 111306Z 22002KT 23/21 A3014 RMK A01 T02330207  RH  085%=      5-min Rain = 0
KMC1 111307Z 20002KT 23/21 A3014 RMK A01 T02330207  RH  085%=      5-min Rain = 0
KMC1 111308Z 19002KT 23/21 A3014 RMK A01 T02340207  RH  085%=      5-min Rain = 0
KMC1 111309Z 19004KT 24/21 A3014 RMK A01 T02350208  RH  085%=      5-min Rain = 0
KMC1 111310Z 18006KT 24/21 A3014 RMK A01 T02360207  RH  084%=      5-min Rain = 0
KMC1 111311Z 20005KT 24/21 A3014 RMK A01 T02370206  RH  083%=      5-min Rain = 0
KMC1 111312Z 21005KT 24/21 A3014 RMK A01 T02370207  RH  083%=      5-min Rain = 0
KMC1 111313Z 19004KT 24/21 A3014 RMK A01 T02380206  RH  083%=      5-min Rain = 0
KMC1 111314Z 20004KT 24/21 A3014 RMK A01 T02380207  RH  082%=      5-min Rain = 0
KMC1 111315Z 19005KT 24/21 A3014 RMK A01 T02390207  RH  082%=      5-min Rain = 0
KMC1 111316Z 18004KT 24/21 A3014 RMK A01 T02390207  RH  082%=      5-min Rain = 0
KMC1 111317Z 19003KT 24/21 A3014 RMK A01 T02400207  RH  082%=      5-min Rain = 0
KMC1 111318Z 20003KT 24/21 A3014 RMK A01 T02410207  RH  082%=      5-min Rain = 0
KMC1 111319Z 19003KT 24/21 A3014 RMK A01 T02410207  RH  081%=      5-min Rain = 0
KMC1 111320Z 19005KT 24/21 A3014 RMK A01 T02420207  RH  081%=      5-min Rain = 0
KMC1 111321Z 19007KT 24/21 A3014 RMK A01 T02420208  RH  081%=      5-min Rain = 0
KMC1 111322Z 20004KT 24/21 A3014 RMK A01 T02430207  RH  080%=      5-min Rain = 0
KMC1 111323Z 19004KT 24/21 A3014 RMK A01 T02430208  RH  081%=      5-min Rain = 0
KMC1 111324Z 20004KT 24/21 A3014 RMK A01 T02440208  RH  080%=      5-min Rain = 0
KMC1 111325Z 20007KT 25/21 A3014 RMK A01 T02450207  RH  080%=      5-min Rain = 0
KMC1 111326Z 18007KT 25/21 A3014 RMK A01 T02450207  RH  080%=      5-min Rain = 0
KMC1 111327Z 19007KT 25/21 A3014 RMK A01 T02450207  RH  079%=      5-min Rain = 0
KMC1 111328Z 20006KT 25/21 A3014 RMK A01 T02450206  RH  079%=      5-min Rain = 0
KMC1 111329Z 19005KT 25/21 A3014 RMK A01 T02450208  RH  080%=      5-min Rain = 0
KMC1 111330Z 20006G11KT 25/21 A3015 RMK A01 T02460207  RH  079%=      5-min Rain = 0
KMC1 111331Z 20006KT 25/21 A3015 RMK A01 T02460206  RH  078%=      5-min Rain = 0
KMC1 111332Z 21006KT 25/21 A3015 RMK A01 T02470206  RH  078%=      5-min Rain = 0
KMC1 111333Z 21006KT 25/21 A3015 RMK A01 T02470206  RH  078%=      5-min Rain = 0
KMC1 111334Z 22005KT 25/21 A3015 RMK A01 T02480206  RH  078%=      5-min Rain = 0
KMC1 111335Z 20005KT 25/21 A3015 RMK A01 T02480207  RH  078%=      5-min Rain = 0
KMC1 111336Z 19006KT 25/21 A3015 RMK A01 T02490207  RH  078%=      5-min Rain = 0
KMC1 111337Z 19008KT 25/21 A3015 RMK A01 T02500206  RH  077%=      5-min Rain = 0
KMC1 111338Z 19007KT 25/21 A3015 RMK A01 T02500207  RH  077%=      5-min Rain = 0
KMC1 111339Z 19004KT 25/21 A3015 RMK A01 T02500207  RH  077%=      5-min Rain = 0
KMC1 111340Z 18006KT 25/21 A3015 RMK A01 T02520209  RH  077%=      5-min Rain = 0
KMC1 111341Z 18007KT 25/21 A3015 RMK A01 T02520207  RH  076%=      5-min Rain = 0
KMC1 111342Z 19007KT 25/21 A3015 RMK A01 T02530207  RH  076%=      5-min Rain = 0
KMC1 111343Z 18009KT 25/21 A3015 RMK A01 T02530206  RH  075%=      5-min Rain = 0
KMC1 111344Z 20008KT 25/21 A3015 RMK A01 T02520206  RH  075%=      5-min Rain = 0
KMC1 111345Z 20006KT 25/21 A3015 RMK A01 T02520206  RH  076%=      5-min Rain = 0
KMC1 111346Z 20005KT 25/21 A3015 RMK A01 T02530208  RH  076%=      5-min Rain = 0
KMC1 111347Z 18006KT 25/21 A3015 RMK A01 T02540207  RH  075%=      5-min Rain = 0
KMC1 111348Z 18009KT 25/21 A3015 RMK A01 T02540206  RH  075%=      5-min Rain = 0
KMC1 111349Z 20008KT 25/21 A3015 RMK A01 T02540206  RH  075%=      5-min Rain = 0
KMC1 111350Z 19005KT 25/21 A3015 RMK A01 T02530207  RH  076%=      5-min Rain = 0
KMC1 111351Z 17006KT 25/21 A3015 RMK A01 T02540208  RH  075%=      5-min Rain = 0
KMC1 111352Z 19006KT 26/21 A3015 RMK A01 T02550206  RH  074%=      5-min Rain = 0
KMC1 111353Z 19007KT 26/21 A3015 RMK A01 T02560206  RH  074%=      5-min Rain = 0
KMC1 111354Z 18006KT 26/21 A3015 RMK A01 T02560208  RH  075%=      5-min Rain = 0
KMC1 111355Z 18007KT 26/21 A3015 RMK A01 T02570207  RH  074%=      5-min Rain = 0
KMC1 111356Z 18006KT 26/21 A3016 RMK A01 T02570208  RH  074%=      5-min Rain = 0
KMC1 111357Z 18007KT 26/21 A3016 RMK A01 T02580206  RH  073%=      5-min Rain = 0
KMC1 111358Z 17007KT 26/21 A3016 RMK A01 T02580207  RH  073%=      5-min Rain = 0
KMC1 111359Z 18005KT 26/21 A3016 RMK A01 T02580206  RH  073%=      5-min Rain = 0
KMC1 111400Z 18005KT 26/21 A3016 RMK A01 T02580208  RH  074%=      5-min Rain = 0
KMC1 111401Z 18007KT 26/21 A3016 RMK A01 T02600207  RH  073%=      5-min Rain = 0
KMC1 111402Z 16006KT 26/21 A3016 RMK A01 T02600207  RH  073%=      5-min Rain = 0
KMC1 111403Z 18008KT 26/21 A3016 RMK A01 T02610206  RH  072%=      5-min Rain = 0
KMC1 111404Z 19006KT 26/21 A3016 RMK A01 T02610206  RH  072%=      5-min Rain = 0
KMC1 111405Z 18006KT 26/21 A3016 RMK A01 T02610206  RH  072%=      5-min Rain = 0
KMC1 111406Z 16005KT 26/21 A3016 RMK A01 T02610207  RH  072%=      5-min Rain = 0
KMC1 111407Z 20005KT 26/21 A3016 RMK A01 T02620207  RH  072%=      5-min Rain = 0
KMC1 111408Z 20007KT 26/21 A3016 RMK A01 T02640206  RH  071%=      5-min Rain = 0
KMC1 111409Z 19006KT 26/21 A3016 RMK A01 T02640205  RH  070%=      5-min Rain = 0
KMC1 111410Z 20007KT 26/21 A3016 RMK A01 T02620205  RH  070%=      5-min Rain = 0
KMC1 111411Z 20006KT 26/21 A3016 RMK A01 T02620205  RH  071%=      5-min Rain = 0
KMC1 111412Z 21007KT 26/21 A3016 RMK A01 T02620205  RH  071%=      5-min Rain = 0
KMC1 111413Z 22007KT 26/21 A3016 RMK A01 T02620205  RH  071%=      5-min Rain = 0
KMC1 111414Z 21006KT 26/21 A3016 RMK A01 T02630206  RH  071%=      5-min Rain = 0
KMC1 111415Z 19005KT 26/21 A3016 RMK A01 T02640205  RH  070%=      5-min Rain = 0
KMC1 111416Z 18005KT 26/21 A3016 RMK A01 T02640207  RH  071%=      5-min Rain = 0
KMC1 111417Z 18007KT 27/21 A3016 RMK A01 T02660206  RH  070%=      5-min Rain = 0
KMC1 111418Z 18006KT 27/21 A3016 RMK A01 T02670206  RH  069%=      5-min Rain = 0
KMC1 111419Z 17007KT 27/21 A3016 RMK A01 T02670205  RH  069%=      5-min Rain = 0
KMC1 111420Z 19008KT 27/21 A3016 RMK A01 T02660205  RH  069%=      5-min Rain = 0
KMC1 111421Z 18008KT 27/21 A3016 RMK A01 T02650205  RH  069%=      5-min Rain = 0
KMC1 111422Z 18008KT 27/21 A3016 RMK A01 T02650205  RH  070%=      5-min Rain = 0
KMC1 111423Z 19008KT 27/20 A3016 RMK A01 T02650204  RH  069%=      5-min Rain = 0
KMC1 111424Z 21005KT 27/21 A3016 RMK A01 T02650206  RH  070%=      5-min Rain = 0
KMC1 111425Z 22003KT 27/21 A3016 RMK A01 T02670208  RH  070%=      5-min Rain = 0
KMC1 111426Z 21005KT 27/21 A3016 RMK A01 T02690207  RH  069%=      5-min Rain = 0
KMC1 111427Z 19007KT 27/21 A3016 RMK A01 T02700206  RH  068%=      5-min Rain = 0
KMC1 111428Z 18007KT 27/21 A3016 RMK A01 T02700205  RH  068%=      5-min Rain = 0
KMC1 111429Z 19005KT 27/21 A3016 RMK A01 T02680205  RH  068%=      5-min Rain = 0
KMC1 111430Z 19006KT 27/21 A3016 RMK A01 T02680206  RH  069%=      5-min Rain = 0
KMC1 111431Z 22007KT 27/21 A3016 RMK A01 T02680206  RH  069%=      5-min Rain = 0
KMC1 111432Z 22006KT 27/21 A3016 RMK A01 T02690206  RH  068%=      5-min Rain = 0
KMC1 111433Z 20004KT 27/21 A3016 RMK A01 T02700207  RH  069%=      5-min Rain = 0
KMC1 111434Z 21007KT 27/21 A3016 RMK A01 T02710206  RH  068%=      5-min Rain = 0
KMC1 111435Z 18006KT 27/21 A3016 RMK A01 T02710206  RH  067%=      5-min Rain = 0
KMC1 111436Z 17009KT 27/21 A3016 RMK A01 T02710205  RH  067%=      5-min Rain = 0
KMC1 111437Z 18009KT 27/21 A3016 RMK A01 T02710205  RH  067%=      5-min Rain = 0
KMC1 111438Z 19008KT 27/20 A3016 RMK A01 T02720204  RH  067%=      5-min Rain = 0
KMC1 111439Z 18008KT 27/20 A3016 RMK A01 T02720204  RH  066%=      5-min Rain = 0
KMC1 111440Z 20007KT 27/20 A3016 RMK A01 T02720204  RH  066%=      5-min Rain = 0
KMC1 111441Z 18008KT 27/20 A3016 RMK A01 T02730203  RH  066%=      5-min Rain = 0
KMC1 111442Z 20007KT 27/21 A3016 RMK A01 T02740205  RH  066%=      5-min Rain = 0
KMC1 111443Z 19007KT 27/20 A3016 RMK A01 T02740203  RH  065%=      5-min Rain = 0
KMC1 111444Z 17010KT 28/20 A3016 RMK A01 T02750202  RH  065%=      5-min Rain = 0
KMC1 111445Z 17009KT 27/20 A3016 RMK A01 T02740201  RH  064%=      5-min Rain = 0
KMC1 111446Z 17008KT 27/20 A3016 RMK A01 T02730202  RH  065%=      5-min Rain = 0
KMC1 111447Z 17005KT 27/20 A3016 RMK A01 T02730204  RH  066%=      5-min Rain = 0
KMC1 111448Z 17009KT 28/20 A3016 RMK A01 T02750204  RH  065%=      5-min Rain = 0
KMC1 111449Z 17011KT 28/20 A3016 RMK A01 T02760203  RH  064%=      5-min Rain = 0
KMC1 111450Z 17009KT 28/20 A3016 RMK A01 T02750202  RH  064%=      5-min Rain = 0
KMC1 111451Z 18008KT 27/20 A3016 RMK A01 T02740202  RH  065%=      5-min Rain = 0
KMC1 111452Z 18008KT 28/21 A3015 RMK A01 T02750205  RH  065%=      5-min Rain = 0
KMC1 111453Z 18008KT 28/20 A3015 RMK A01 T02770201  RH  063%=      5-min Rain = 0
KMC1 111454Z 21007KT 28/20 A3015 RMK A01 T02770203  RH  064%=      5-min Rain = 0
KMC1 111455Z 19007KT 28/20 A3015 RMK A01 T02780202  RH  063%=      5-min Rain = 0
KMC1 111456Z 17009KT 28/20 A3015 RMK A01 T02780202  RH  063%=      5-min Rain = 0
KMC1 111457Z 19008KT 28/20 A3015 RMK A01 T02780200  RH  062%=      5-min Rain = 0
KMC1 111458Z 18008KT 28/20 A3015 RMK A01 T02790201  RH  063%=      5-min Rain = 0
KMC1 111459Z 18009KT 28/20 A3015 RMK A01 T02800201  RH  062%=      5-min Rain = 0
KMC1 111500Z 17008KT 28/20 A3015 RMK A01 T02790202  RH  063%=      5-min Rain = 0
KMC1 111501Z 20007KT 28/20 A3015 RMK A01 T02800204  RH  063%=      5-min Rain = 0
KMC1 111502Z 19007KT 28/20 A3015 RMK A01 T02810202  RH  062%=      5-min Rain = 0
KMC1 111503Z 19006KT 28/20 A3015 RMK A01 T02810203  RH  062%=      5-min Rain = 0
KMC1 111504Z 18004KT 28/20 A3015 RMK A01 T02810204  RH  063%=      5-min Rain = 0
KMC1 111505Z 20004KT 28/21 A3015 RMK A01 T02830205  RH  063%=      5-min Rain = 0
KMC1 111506Z 18005KT 28/21 A3015 RMK A01 T02840205  RH  062%=      5-min Rain = 0
KMC1 111507Z 19008KT 29/21 A3015 RMK A01 T02860205  RH  062%=      5-min Rain = 0
KMC1 111508Z 20007KT 29/20 A3015 RMK A01 T02850202  RH  061%=      5-min Rain = 0
KMC1 111509Z 18005KT 28/20 A3015 RMK A01 T02840204  RH  062%=      5-min Rain = 0
KMC1 111510Z 18008KT 28/20 A3015 RMK A01 T02840203  RH  061%=      5-min Rain = 0
KMC1 111511Z 18006KT 29/20 A3015 RMK A01 T02850201  RH  060%=      5-min Rain = 0
KMC1 111512Z 19006KT 29/20 A3015 RMK A01 T02850203  RH  061%=      5-min Rain = 0
KMC1 111513Z 20006KT 29/20 A3015 RMK A01 T02870203  RH  060%=      5-min Rain = 0
KMC1 111514Z 20009KT 29/20 A3015 RMK A01 T02870199  RH  059%=      5-min Rain = 0
KMC1 111515Z 19008KT 28/20 A3015 RMK A01 T02840202  RH  061%=      5-min Rain = 0
KMC1 111516Z 21006KT 28/20 A3015 RMK A01 T02830202  RH  061%=      5-min Rain = 0
KMC1 111517Z 17006KT 28/20 A3015 RMK A01 T02830204  RH  062%=      5-min Rain = 0
KMC1 111518Z 17006KT 28/20 A3015 RMK A01 T02840204  RH  062%=      5-min Rain = 0
KMC1 111519Z 18008KT 29/20 A3015 RMK A01 T02850203  RH  061%=      5-min Rain = 0
KMC1 111520Z 19010KT 29/20 A3015 RMK A01 T02850203  RH  061%=      5-min Rain = 0
KMC1 111521Z 18009KT 29/20 A3015 RMK A01 T02850202  RH  061%=      5-min Rain = 0
KMC1 111522Z 20011KT 28/20 A3015 RMK A01 T02830202  RH  061%=      5-min Rain = 0
KMC1 111523Z 19008KT 28/20 A3015 RMK A01 T02840202  RH  061%=      5-min Rain = 0
KMC1 111524Z 19007KT 28/20 A3015 RMK A01 T02840202  RH  061%=      5-min Rain = 0
KMC1 111525Z 21009KT 28/20 A3015 RMK A01 T02840202  RH  061%=      5-min Rain = 0
KMC1 111526Z 19008KT 28/20 A3015 RMK A01 T02840203  RH  061%=      5-min Rain = 0
KMC1 111527Z 20009KT 29/20 A3015 RMK A01 T02850203  RH  061%=      5-min Rain = 0
KMC1 111528Z 20008KT 29/20 A3015 RMK A01 T02880203  RH  060%=      5-min Rain = 0
KMC1 111529Z 20008KT 29/20 A3015 RMK A01 T02880202  RH  060%=      5-min Rain = 0
KMC1 111530Z 18006KT 29/20 A3015 RMK A01 T02880202  RH  060%=      5-min Rain = 0
KMC1 111531Z 19007KT 29/20 A3015 RMK A01 T02870201  RH  060%=      5-min Rain = 0
KMC1 111532Z 20008KT 29/20 A3015 RMK A01 T02860201  RH  060%=      5-min Rain = 0
KMC1 111533Z 18005KT 29/20 A3015 RMK A01 T02850202  RH  061%=      5-min Rain = 0
KMC1 111534Z 19008KT 29/20 A3015 RMK A01 T02860202  RH  060%=      5-min Rain = 0
KMC1 111535Z 19007KT 29/20 A3016 RMK A01 T02870202  RH  060%=      5-min Rain = 0
KMC1 111536Z 18010KT 29/20 A3016 RMK A01 T02880201  RH  059%=      5-min Rain = 0
KMC1 111537Z 17009KT 29/20 A3016 RMK A01 T02880201  RH  059%=      5-min Rain = 0
KMC1 111538Z 16007KT 29/20 A3016 RMK A01 T02880198  RH  058%=      5-min Rain = 0
KMC1 111539Z 16006KT 29/20 A3016 RMK A01 T02890202  RH  059%=      5-min Rain = 0
KMC1 111540Z 17004KT 29/20 A3016 RMK A01 T02900200  RH  058%=      5-min Rain = 0
KMC1 111541Z 19007G12KT 29/20 A3016 RMK A01 T02900204  RH  060%=      5-min Rain = 0
KMC1 111542Z 18008KT 29/20 A3016 RMK A01 T02920204  RH  059%=      5-min Rain = 0
KMC1 111543Z 18008KT 29/20 A3016 RMK A01 T02930202  RH  058%=      5-min Rain = 0
KMC1 111544Z 19006KT 29/20 A3016 RMK A01 T02930203  RH  058%=      5-min Rain = 0
KMC1 111545Z 19006KT 29/20 A3016 RMK A01 T02930202  RH  058%=      5-min Rain = 0
KMC1 111546Z 20007KT 29/20 A3016 RMK A01 T02940201  RH  057%=      5-min Rain = 0
KMC1 111547Z 19007KT 29/20 A3016 RMK A01 T02940200  RH  057%=      5-min Rain = 0
KMC1 111548Z 20005KT 29/20 A3016 RMK A01 T02920202  RH  058%=      5-min Rain = 0
KMC1 111549Z 17004KT 29/20 A3015 RMK A01 T02920203  RH  059%=      5-min Rain = 0
KMC1 111550Z 19004KT 29/20 A3015 RMK A01 T02930202  RH  058%=      5-min Rain = 0
KMC1 111551Z 17006KT 29/20 A3015 RMK A01 T02930202  RH  058%=      5-min Rain = 0
KMC1 111552Z 18007KT 29/20 A3015 RMK A01 T02940203  RH  058%=      5-min Rain = 0
KMC1 111553Z 18008KT 30/20 A3015 RMK A01 T02950201  RH  057%=      5-min Rain = 0
KMC1 111554Z 18008KT 30/20 A3015 RMK A01 T02960199  RH  056%=      5-min Rain = 0
KMC1 111555Z 18007KT 30/20 A3015 RMK A01 T02950199  RH  056%=      5-min Rain = 0
KMC1 111556Z 16005KT 29/20 A3015 RMK A01 T02940200  RH  057%=      5-min Rain = 0
KMC1 111557Z 15004G9KT 29/20 A3015 RMK A01 T02940199  RH  057%=      5-min Rain = 0
KMC1 111558Z 16007KT 29/20 A3015 RMK A01 T02930202  RH  058%=      5-min Rain = 0
KMC1 111559Z 17006KT 30/20 A3015 RMK A01 T02960201  RH  057%=      5-min Rain = 0
KMC1 111600Z 16007KT 30/20 A3015 RMK A01 T02970200  RH  056%=      5-min Rain = 0
KMC1 111601Z 14005KT 30/20 A3015 RMK A01 T02980199  RH  056%=      5-min Rain = 0
KMC1 111602Z 14007KT 30/20 A3015 RMK A01 T02990200  RH  056%=      5-min Rain = 0
KMC1 111603Z 13008KT 30/20 A3015 RMK A01 T02990201  RH  056%=      5-min Rain = 0
KMC1 111604Z 15007KT 30/20 A3015 RMK A01 T03010201  RH  055%=      5-min Rain = 0
KMC1 111605Z 20008KT 30/20 A3015 RMK A01 T03020199  RH  054%=      5-min Rain = 0
KMC1 111606Z 18005KT 30/20 A3015 RMK A01 T03020200  RH  054%=      5-min Rain = 0
KMC1 111607Z 16003KT 30/20 A3015 RMK A01 T03030203  RH  055%=      5-min Rain = 0
KMC1 111608Z 18006KT 31/20 A3015 RMK A01 T03050199  RH  053%=      5-min Rain = 0
KMC1 111609Z 18007KT 30/20 A3015 RMK A01 T03030200  RH  054%=      5-min Rain = 0
KMC1 111610Z 19006KT 30/20 A3015 RMK A01 T03030203  RH  055%=      5-min Rain = 0
KMC1 111611Z 20008KT 30/20 A3015 RMK A01 T03040199  RH  054%=      5-min Rain = 0
KMC1 111612Z 20007KT 30/20 A3015 RMK A01 T03030201  RH  054%=      5-min Rain = 0
KMC1 111613Z 20007KT 30/20 A3015 RMK A01 T03030200  RH  054%=      5-min Rain = 0
KMC1 111614Z 20006KT 30/20 A3015 RMK A01 T03020199  RH  054%=      5-min Rain = 0
KMC1 111615Z 18004KT 30/20 A3015 RMK A01 T02990197  RH  054%=      5-min Rain = 0
KMC1 111616Z 13004KT 30/20 A3015 RMK A01 T02970199  RH  056%=      5-min Rain = 0
KMC1 111617Z 15008KT 30/20 A3015 RMK A01 T02990198  RH  054%=      5-min Rain = 0
KMC1 111618Z 14006KT 30/20 A3015 RMK A01 T03020199  RH  054%=      5-min Rain = 0
KMC1 111619Z 14007KT 31/19 A3015 RMK A01 T03050194  RH  052%=      5-min Rain = 0
KMC1 111620Z 14009KT 31/19 A3015 RMK A01 T03050193  RH  051%=      5-min Rain = 0
KMC1 111621Z 13007KT 30/20 A3015 RMK A01 T03040197  RH  053%=      5-min Rain = 0
KMC1 111622Z 16006KT 30/20 A3015 RMK A01 T03040198  RH  053%=      5-min Rain = 0
KMC1 111623Z 15005KT 31/20 A3015 RMK A01 T03050200  RH  053%=      5-min Rain = 0
KMC1 111624Z 18006KT 31/20 A3015 RMK A01 T03060197  RH  052%=      5-min Rain = 0
KMC1 111625Z 14008KT 31/20 A3015 RMK A01 T03060199  RH  053%=      5-min Rain = 0
KMC1 111626Z 14005KT 31/20 A3015 RMK A01 T03070198  RH  052%=      5-min Rain = 0
KMC1 111627Z 13003KT 31/20 A3015 RMK A01 T03070198  RH  052%=      5-min Rain = 0
KMC1 111628Z 12004KT 31/20 A3015 RMK A01 T03070197  RH  052%=      5-min Rain = 0
KMC1 111629Z 14006KT 31/20 A3015 RMK A01 T03060197  RH  052%=      5-min Rain = 0
KMC1 111630Z 17008KT 31/20 A3015 RMK A01 T03050199  RH  053%=      5-min Rain = 0
KMC1 111631Z 20007KT 31/20 A3015 RMK A01 T03060195  RH  052%=      5-min Rain = 0
KMC1 111632Z 16006KT 31/19 A3015 RMK A01 T03050194  RH  052%=      5-min Rain = 0
KMC1 111633Z 14007KT 30/19 A3015 RMK A01 T03040192  RH  051%=      5-min Rain = 0
KMC1 111634Z 14007KT 30/19 A3015 RMK A01 T03030193  RH  052%=      5-min Rain = 0
KMC1 111635Z 13004KT 30/19 A3015 RMK A01 T03040189  RH  050%=      5-min Rain = 0
KMC1 111636Z 15006G11KT 30/19 A3014 RMK A01 T03040192  RH  051%=      5-min Rain = 0
KMC1 111637Z 16008KT 31/20 A3015 RMK A01 T03050195  RH  052%=      5-min Rain = 0
KMC1 111638Z 15006KT 31/20 A3015 RMK A01 T03080196  RH  051%=      5-min Rain = 0
KMC1 111639Z 16002KT 31/20 A3015 RMK A01 T03100195  RH  051%=      5-min Rain = 0
KMC1 111640Z 15004KT 31/20 A3015 RMK A01 T03100196  RH  051%=      5-min Rain = 0
KMC1 111641Z 14005KT 31/20 A3015 RMK A01 T03110200  RH  052%=      5-min Rain = 0
KMC1 111642Z 14004KT 31/20 A3015 RMK A01 T03120196  RH  050%=      5-min Rain = 0
KMC1 111643Z 15003KT 31/19 A3015 RMK A01 T03110194  RH  050%=      5-min Rain = 0
KMC1 111644Z 19005KT 31/20 A3015 RMK A01 T03090197  RH  051%=      5-min Rain = 0
KMC1 111645Z 19005KT 31/19 A3015 RMK A01 T03090194  RH  050%=      5-min Rain = 0
KMC1 111646Z 17005KT 31/20 A3014 RMK A01 T03100198  RH  051%=      5-min Rain = 0
KMC1 111647Z 15005KT 31/19 A3014 RMK A01 T03130191  RH  048%=      5-min Rain = 0
KMC1 111648Z 16005G10KT 32/19 A3014 RMK A01 T03160190  RH  047%=      5-min Rain = 0
KMC1 111649Z 16009KT 32/19 A3014 RMK A01 T03180186  RH  046%=      5-min Rain = 0
KMC1 111650Z 18008KT 32/19 A3014 RMK A01 T03170186  RH  046%=      5-min Rain = 0
KMC1 111651Z 14006KT 32/19 A3014 RMK A01 T03150191  RH  048%=      5-min Rain = 0
KMC1 111652Z 17007KT 32/19 A3014 RMK A01 T03150189  RH  047%=      5-min Rain = 0
KMC1 111653Z 16005KT 32/18 A3014 RMK A01 T03150182  RH  045%=      5-min Rain = 0
KMC1 111654Z 19005KT 31/18 A3014 RMK A01 T03120182  RH  046%=      5-min Rain = 0
KMC1 111655Z 19004KT 31/19 A3014 RMK A01 T03110185  RH  047%=      5-min Rain = 0
KMC1 111656Z 19007KT 31/18 A3014 RMK A01 T03110182  RH  046%=      5-min Rain = 0
KMC1 111657Z 19006KT 31/18 A3014 RMK A01 T03100176  RH  045%=      5-min Rain = 0
KMC1 111658Z 20007KT 31/18 A3014 RMK A01 T03080180  RH  046%=      5-min Rain = 0
KMC1 111659Z 19006KT 31/18 A3014 RMK A01 T03060181  RH  047%=      5-min Rain = 0
KMC1 111700Z 19006KT 30/18 A3014 RMK A01 T03040183  RH  048%=      5-min Rain = 0
KMC1 111701Z 16004KT 31/19 A3014 RMK A01 T03050186  RH  049%=      5-min Rain = 0
KMC1 111702Z 19007KT 31/19 A3014 RMK A01 T03080185  RH  048%=      5-min Rain = 0
KMC1 111703Z 18007KT 31/18 A3014 RMK A01 T03100184  RH  047%=      5-min Rain = 0
KMC1 111704Z 14006KT 31/19 A3014 RMK A01 T03120189  RH  048%=      5-min Rain = 0
KMC1 111705Z 16008KT 32/19 A3014 RMK A01 T03150190  RH  047%=      5-min Rain = 0
KMC1 111706Z 16006KT 32/19 A3014 RMK A01 T03160185  RH  046%=      5-min Rain = 0
KMC1 111707Z 17006KT 31/19 A3014 RMK A01 T03140187  RH  047%=      5-min Rain = 0
KMC1 111708Z 17005KT 31/19 A3014 RMK A01 T03130186  RH  047%=      5-min Rain = 0
KMC1 111709Z 18003KT 31/18 A3014 RMK A01 T03120182  RH  046%=      5-min Rain = 0
KMC1 111710Z 15003KT 31/18 A3014 RMK A01 T03110182  RH  046%=      5-min Rain = 0
KMC1 111711Z 13004KT 31/18 A3014 RMK A01 T03100184  RH  047%=      5-min Rain = 0
KMC1 111712Z 13006KT 31/19 A3014 RMK A01 T03110185  RH  047%=      5-min Rain = 0
KMC1 111713Z 12004KT 31/19 A3014 RMK A01 T03110186  RH  047%=      5-min Rain = 0
KMC1 111714Z 15005KT 31/19 A3014 RMK A01 T03110186  RH  048%=      5-min Rain = 0
KMC1 111715Z 14006KT 31/19 A3014 RMK A01 T03110188  RH  048%=      5-min Rain = 0
KMC1 111716Z 16005KT 31/19 A3014 RMK A01 T03130188  RH  047%=      5-min Rain = 0
KMC1 111717Z 15006KT 32/19 A3014 RMK A01 T03150187  RH  047%=      5-min Rain = 0
KMC1 111718Z 16008KT 32/18 A3014 RMK A01 T03170184  RH  045%=      5-min Rain = 0
KMC1 111719Z 16007KT 32/18 A3014 RMK A01 T03170184  RH  045%=      5-min Rain = 0
KMC1 111720Z 15005KT 32/18 A3014 RMK A01 T03150183  RH  045%=      5-min Rain = 0
KMC1 111721Z 18004KT 32/19 A3014 RMK A01 T03150187  RH  046%=      5-min Rain = 0
KMC1 111722Z 16007KT 32/18 A3014 RMK A01 T03160184  RH  045%=      5-min Rain = 0
KMC1 111723Z 16010KT 31/19 A3014 RMK A01 T03140185  RH  046%=      5-min Rain = 0
KMC1 111724Z 17008KT 31/19 A3014 RMK A01 T03120185  RH  047%=      5-min Rain = 0
KMC1 111725Z 19004KT 31/19 A3014 RMK A01 T03110186  RH  047%=      5-min Rain = 0
KMC1 111726Z 14004KT 31/19 A3014 RMK A01 T03120187  RH  048%=      5-min Rain = 0
KMC1 111727Z 16005KT 31/19 A3014 RMK A01 T03120186  RH  047%=      5-min Rain = 0
KMC1 111728Z 15005KT 31/19 A3014 RMK A01 T03120186  RH  047%=      5-min Rain = 0
KMC1 111729Z 18004KT 31/18 A3014 RMK A01 T03110183  RH  046%=      5-min Rain = 0
KMC1 111730Z 16004KT 31/18 A3014 RMK A01 T03080184  RH  048%=      5-min Rain = 0
KMC1 111731Z 16008G14KT 31/18 A3014 RMK A01 T03070184  RH  048%=      5-min Rain = 0
KMC1 111732Z 15008G13KT 31/18 A3014 RMK A01 T03070178  RH  046%=      5-min Rain = 0
KMC1 111733Z 16009KT 31/18 A3014 RMK A01 T03090180  RH  046%=      5-min Rain = 0
KMC1 111734Z 16010KT 31/18 A3014 RMK A01 T03130176  RH  044%=      5-min Rain = 0
KMC1 111735Z 14006KT 31/18 A3014 RMK A01 T03140179  RH  044%=      5-min Rain = 0
KMC1 111736Z 13007KT 32/18 A3014 RMK A01 T03170184  RH  045%=      5-min Rain = 0
KMC1 111737Z 15007KT 32/18 A3014 RMK A01 T03200184  RH  044%=      5-min Rain = 0
KMC1 111738Z 16007KT 32/19 A3014 RMK A01 T03200186  RH  045%=      5-min Rain = 0
KMC1 111739Z 14004KT 32/19 A3014 RMK A01 T03200190  RH  046%=      5-min Rain = 0
KMC1 111740Z 15005KT 32/19 A3014 RMK A01 T03230188  RH  045%=      5-min Rain = 0
KMC1 111741Z 16009KT 32/19 A3014 RMK A01 T03240186  RH  044%=      5-min Rain = 0
KMC1 111742Z 15008KT 32/18 A3014 RMK A01 T03230179  RH  042%=      5-min Rain = 0
KMC1 111743Z 14006KT 32/18 A3014 RMK A01 T03210175  RH  042%=      5-min Rain = 0
KMC1 111744Z 10006KT 32/18 A3013 RMK A01 T03200175  RH  042%=      5-min Rain = 0
KMC1 111745Z 09009KT 32/17 A3013 RMK A01 T03200173  RH  041%=      5-min Rain = 0
KMC1 111746Z 13010KT 32/18 A3013 RMK A01 T03220177  RH  042%=      5-min Rain = 0
KMC1 111747Z 13011KT 32/18 A3013 RMK A01 T03240181  RH  042%=      5-min Rain = 0
KMC1 111748Z 13010G15KT 33/18 A3013 RMK A01 T03260180  RH  042%=      5-min Rain = 0
KMC1 111749Z 14008G13KT 33/18 A3014 RMK A01 T03260180  RH  042%=      5-min Rain = 0
KMC1 111750Z 12005G10KT 32/18 A3013 RMK A01 T03240179  RH  042%=      5-min Rain = 0
KMC1 111751Z 13007KT 32/18 A3013 RMK A01 T03240179  RH  042%=      5-min Rain = 0
KMC1 111752Z 12006KT 32/18 A3013 RMK A01 T03240176  RH  041%=      5-min Rain = 0
KMC1 111753Z 15004KT 32/18 A3013 RMK A01 T03220178  RH  042%=      5-min Rain = 0
KMC1 111754Z 14007KT 32/18 A3013 RMK A01 T03220181  RH  043%=      5-min Rain = 0
KMC1 111755Z 13005KT 32/17 A3013 RMK A01 T03240173  RH  041%=      5-min Rain = 0
KMC1 111756Z 15006KT 32/18 A3013 RMK A01 T03240176  RH  041%=      5-min Rain = 0
KMC1 111757Z 15006KT 32/18 A3013 RMK A01 T03220177  RH  042%=      5-min Rain = 0
KMC1 111758Z 17008KT 32/18 A3013 RMK A01 T03220178  RH  042%=      5-min Rain = 0
KMC1 111759Z 16006KT 32/18 A3013 RMK A01 T03220176  RH  042%=      5-min Rain = 0
KMC1 111800Z 17008KT 32/18 A3013 RMK A01 T03230176  RH  041%=      5-min Rain = 0
KMC1 111801Z 15009KT 32/18 A3013 RMK A01 T03240177  RH  042%=      5-min Rain = 0
KMC1 111802Z 13011KT 33/18 A3013 RMK A01 T03260175  RH  041%=      5-min Rain = 0
KMC1 111803Z 12006KT 33/18 A3013 RMK A01 T03260176  RH  041%=      5-min Rain = 0
KMC1 111804Z 15005KT 33/17 A3013 RMK A01 T03260172  RH  040%=      5-min Rain = 0
KMC1 111805Z 16004KT 33/17 A3013 RMK A01 T03260172  RH  040%=      5-min Rain = 0
KMC1 111806Z 17005KT 33/17 A3013 RMK A01 T03250172  RH  040%=      5-min Rain = 0
KMC1 111807Z 18009G15KT 33/17 A3013 RMK A01 T03250171  RH  040%=      5-min Rain = 0
KMC1 111808Z 18007G12KT 32/17 A3013 RMK A01 T03240168  RH  039%=      5-min Rain = 0
KMC1 111809Z 15010KT 32/18 A3013 RMK A01 T03230176  RH  042%=      5-min Rain = 0
KMC1 111810Z 15007KT 33/17 A3013 RMK A01 T03270174  RH  040%=      5-min Rain = 0
KMC1 111811Z 17004KT 33/18 A3013 RMK A01 T03270177  RH  041%=      5-min Rain = 0
KMC1 111812Z 18005KT 33/17 A3013 RMK A01 T03280174  RH  040%=      5-min Rain = 0
KMC1 111813Z 19009G14KT 33/18 A3013 RMK A01 T03270175  RH  040%=      5-min Rain = 0
KMC1 111814Z 21004KT 33/17 A3012 RMK A01 T03270165  RH  038%=      5-min Rain = 0
KMC1 111815Z 17004KT 33/17 A3012 RMK A01 T03270171  RH  039%=      5-min Rain = 0
KMC1 111816Z 15008KT 33/17 A3012 RMK A01 T03280172  RH  039%=      5-min Rain = 0
KMC1 111817Z 17005KT 33/17 A3012 RMK A01 T03290169  RH  038%=      5-min Rain = 0
KMC1 111818Z 11004KT 33/17 A3012 RMK A01 T03280172  RH  039%=      5-min Rain = 0
KMC1 111819Z 14002KT 33/17 A3012 RMK A01 T03290170  RH  039%=      5-min Rain = 0
KMC1 111820Z 05006KT 33/18 A3012 RMK A01 T03310175  RH  039%=      5-min Rain = 0
KMC1 111821Z 05005G10KT 33/17 A3012 RMK A01 T03290166  RH  038%=      5-min Rain = 0
KMC1 111822Z 08003KT 33/17 A3012 RMK A01 T03260167  RH  039%=      5-min Rain = 0
KMC1 111823Z 12010KT 33/17 A3012 RMK A01 T03260171  RH  040%=      5-min Rain = 0
KMC1 111824Z 12006G11KT 33/17 A3012 RMK A01 T03270169  RH  039%=      5-min Rain = 0
KMC1 111825Z 12003KT 33/17 A3012 RMK A01 T03260172  RH  040%=      5-min Rain = 0
KMC1 111826Z 11007KT 33/17 A3011 RMK A01 T03280173  RH  040%=      5-min Rain = 0
KMC1 111827Z 13007KT 33/17 A3011 RMK A01 T03320171  RH  038%=      5-min Rain = 0
KMC1 111828Z 11005KT 33/16 A3011 RMK A01 T03330164  RH  036%=      5-min Rain = 0
KMC1 111829Z 12006KT 33/17 A3011 RMK A01 T03310167  RH  037%=      5-min Rain = 0
KMC1 111830Z 13009G14KT 33/17 A3011 RMK A01 T03320166  RH  037%=      5-min Rain = 0
KMC1 111831Z 14007KT 33/16 A3011 RMK A01 T03330164  RH  037%=      5-min Rain = 0
KMC1 111832Z 15005KT 33/16 A3011 RMK A01 T03310164  RH  037%=      5-min Rain = 0
KMC1 111833Z 15003KT 33/17 A3011 RMK A01 T03300166  RH  037%=      5-min Rain = 0
KMC1 111834Z 16002KT 33/16 A3011 RMK A01 T03300163  RH  037%=      5-min Rain = 0
KMC1 111835Z 07001KT 33/17 A3011 RMK A01 T03310167  RH  038%=      5-min Rain = 0
KMC1 111836Z 06001KT 33/17 A3011 RMK A01 T03300165  RH  037%=      5-min Rain = 0
KMC1 111837Z 08002KT 33/17 A3011 RMK A01 T03280166  RH  038%=      5-min Rain = 0
KMC1 111838Z 09004KT 33/17 A3011 RMK A01 T03260171  RH  039%=      5-min Rain = 0
KMC1 111839Z 09005KT 33/17 A3011 RMK A01 T03260172  RH  040%=      5-min Rain = 0
KMC1 111840Z 11003KT 33/17 A3011 RMK A01 T03260173  RH  040%=      5-min Rain = 0
KMC1 111841Z 16004KT 33/17 A3011 RMK A01 T03280173  RH  040%=      5-min Rain = 0
KMC1 111842Z 11006KT 33/18 A3011 RMK A01 T03320178  RH  040%=      5-min Rain = 0
KMC1 111843Z 12006KT 33/17 A3011 RMK A01 T03330170  RH  038%=      5-min Rain = 0
KMC1 111844Z 14007KT 33/17 A3011 RMK A01 T03310170  RH  038%=      5-min Rain = 0
KMC1 111845Z 16006KT 33/17 A3011 RMK A01 T03300168  RH  038%=      5-min Rain = 0
KMC1 111846Z 15007KT 33/17 A3011 RMK A01 T03300166  RH  037%=      5-min Rain = 0
KMC1 111847Z 15007KT 33/17 A301 RMK A01 T03320166  RH  037%=      5-min Rain = 0
KMC1 111848Z 15006G15KT 33/17 A301 RMK A01 T03330169  RH  038%=      5-min Rain = 0
KMC1 111849Z 14010KT 34/17 A301 RMK A01 T03350168  RH  037%=      5-min Rain = 0
KMC1 111850Z 13003KT 33/16 A301 RMK A01 T03340164  RH  036%=      5-min Rain = 0
KMC1 111851Z 13005KT 33/17 A301 RMK A01 T03320165  RH  037%=      5-min Rain = 0
KMC1 111852Z 12007KT 33/17 A301 RMK A01 T03320165  RH  037%=      5-min Rain = 0
KMC1 111853Z 09006KT 33/17 A301 RMK A01 T03330166  RH  037%=      5-min Rain = 0
KMC1 111854Z 12004KT 33/17 A301 RMK A01 T03330166  RH  037%=      5-min Rain = 0
KMC1 111855Z 13007KT 33/17 A301 RMK A01 T03330167  RH  037%=      5-min Rain = 0
KMC1 111856Z 12009KT 33/17 A301 RMK A01 T03330165  RH  037%=      5-min Rain = 0
KMC1 111857Z 13005KT 33/17 A301 RMK A01 T03320169  RH  038%=      5-min Rain = 0
KMC1 111858Z 12004KT 33/16 A301 RMK A01 T03310164  RH  037%=      5-min Rain = 0
KMC1 111859Z 10003KT 33/17 A301 RMK A01 T03310166  RH  037%=      5-min Rain = 0
KMC1 111900Z 10003KT 33/16 A301 RMK A01 T03290163  RH  037%=      5-min Rain = 0
KMC1 111901Z 10003KT 33/17 A301 RMK A01 T03270166  RH  038%=      5-min Rain = 0
KMC1 111902Z 08001KT 33/17 A301 RMK A01 T03270166  RH  038%=      5-min Rain = 0
KMC1 111903Z 23001KT 33/17 A301 RMK A01 T03260171  RH  039%=      5-min Rain = 0
KMC1 111904Z 26000KT 33/17 A301 RMK A01 T03270170  RH  039%=      5-min Rain = 0
KMC1 111905Z 11001KT 33/17 A301 RMK A01 T03280169  RH  039%=      5-min Rain = 0
KMC1 111906Z 10004KT 33/17 A301 RMK A01 T03300172  RH  039%=      5-min Rain = 0
KMC1 111907Z 12004KT 33/17 A301 RMK A01 T03330170  RH  038%=      5-min Rain = 0
KMC1 111908Z 15003KT 33/17 A301 RMK A01 T03340171  RH  038%=      5-min Rain = 0
KMC1 111909Z 16008KT 34/17 A301 RMK A01 T03370170  RH  037%=      5-min Rain = 0
KMC1 111910Z 16006KT 34/17 A301 RMK A01 T03390166  RH  036%=      5-min Rain = 0
KMC1 111911Z 18008G13KT 34/17 A301 RMK A01 T03410166  RH  035%=      5-min Rain = 0
KMC1 111912Z 19011KT 34/16 A301 RMK A01 T03420160  RH  034%=      5-min Rain = 0
KMC1 111913Z 18009KT 34/16 A3009 RMK A01 T03390157  RH  034%=      5-min Rain = 0
KMC1 111914Z 19006KT 34/16 A3009 RMK A01 T03380156  RH  034%=      5-min Rain = 0
KMC1 111915Z 19006KT 34/16 A3009 RMK A01 T03370155  RH  034%=      5-min Rain = 0
KMC1 111916Z 18005KT 34/16 A3009 RMK A01 T03360160  RH  035%=      5-min Rain = 0
KMC1 111917Z 13005KT 34/16 A3009 RMK A01 T03380156  RH  034%=      5-min Rain = 0
KMC1 111918Z 14006KT 34/16 A3009 RMK A01 T03370159  RH  034%=      5-min Rain = 0
KMC1 111919Z 15007KT 34/16 A3009 RMK A01 T03380158  RH  034%=      5-min Rain = 0
KMC1 111920Z 19007KT 34/16 A3009 RMK A01 T03380158  RH  034%=      5-min Rain = 0
KMC1 111921Z 20006KT 34/16 A3009 RMK A01 T03380160  RH  034%=      5-min Rain = 0
KMC1 111922Z 20006KT 34/16 A3009 RMK A01 T03400163  RH  035%=      5-min Rain = 0
KMC1 111923Z 20006KT 34/16 A3009 RMK A01 T03420157  RH  033%=      5-min Rain = 0
KMC1 111924Z 19004G9KT 34/16 A3009 RMK A01 T03400158  RH  034%=      5-min Rain = 0
KMC1 111925Z 14007KT 34/16 A3009 RMK A01 T03390161  RH  035%=      5-min Rain = 0
KMC1 111926Z 16006KT 34/17 A3009 RMK A01 T03420167  RH  035%=      5-min Rain = 0
KMC1 111927Z 18006KT 35/16 A3009 RMK A01 T03450158  RH  033%=      5-min Rain = 0
KMC1 111928Z 17009KT 34/16 A3009 RMK A01 T03440161  RH  033%=      5-min Rain = 0
KMC1 111929Z 16007KT 34/16 A3008 RMK A01 T03430156  RH  033%=      5-min Rain = 0
KMC1 111930Z 14006KT 34/16 A3008 RMK A01 T03390155  RH  033%=      5-min Rain = 0
KMC1 111931Z 13008KT 34/16 A3008 RMK A01 T03380160  RH  034%=      5-min Rain = 0
KMC1 111932Z 13008KT 34/16 A3008 RMK A01 T03410162  RH  034%=      5-min Rain = 0
KMC1 111933Z 13009KT 34/16 A3008 RMK A01 T03430161  RH  034%=      5-min Rain = 0
KMC1 111934Z 15010KT 35/16 A3008 RMK A01 T03460161  RH  033%=      5-min Rain = 0
KMC1 111935Z 17007KT 35/16 A3008 RMK A01 T03470160  RH  033%=      5-min Rain = 0
KMC1 111936Z 15005KT 35/16 A3008 RMK A01 T03460158  RH  033%=      5-min Rain = 0
KMC1 111937Z 12004KT 34/16 A3008 RMK A01 T03430156  RH  033%=      5-min Rain = 0
KMC1 111938Z 13004KT 34/15 A3008 RMK A01 T03390154  RH  033%=      5-min Rain = 0
KMC1 111939Z 12007G12KT 34/16 A3008 RMK A01 T03380158  RH  034%=      5-min Rain = 0
KMC1 111940Z 13007KT 34/16 A3008 RMK A01 T03380159  RH  034%=      5-min Rain = 0
KMC1 111941Z 13007KT 34/16 A3008 RMK A01 T03390158  RH  034%=      5-min Rain = 0
KMC1 111942Z 13012KT 34/16 A3008 RMK A01 T03390160  RH  034%=      5-min Rain = 0
KMC1 111943Z 15010KT 34/16 A3008 RMK A01 T03400161  RH  034%=      5-min Rain = 0
KMC1 111944Z 13006KT 34/16 A3008 RMK A01 T03420160  RH  034%=      5-min Rain = 0
KMC1 111945Z 15004KT 34/16 A3008 RMK A01 T03410156  RH  033%=      5-min Rain = 0
KMC1 111946Z 15001KT 34/16 A3008 RMK A01 T03380156  RH  034%=      5-min Rain = 0
KMC1 111947Z 13004KT 34/16 A3008 RMK A01 T03370159  RH  035%=      5-min Rain = 0
KMC1 111948Z 12006KT 34/16 A3008 RMK A01 T03370159  RH  035%=      5-min Rain = 0
KMC1 111949Z 10006KT 34/16 A3008 RMK A01 T03390158  RH  034%=      5-min Rain = 0
KMC1 111950Z 13005KT 34/16 A3007 RMK A01 T03410160  RH  034%=      5-min Rain = 0
KMC1 111951Z 17005KT 34/16 A3007 RMK A01 T03420156  RH  033%=      5-min Rain = 0
KMC1 111952Z 20005KT 34/16 A3008 RMK A01 T03430156  RH  033%=      5-min Rain = 0
KMC1 111953Z 20003KT 34/15 A3008 RMK A01 T03400152  RH  032%=      5-min Rain = 0
KMC1 111954Z 21003KT 34/15 A3007 RMK A01 T03360153  RH  033%=      5-min Rain = 0
KMC1 111955Z 21004KT 34/16 A3007 RMK A01 T03350157  RH  034%=      5-min Rain = 0
KMC1 111956Z 17007KT 34/16 A3007 RMK A01 T03380156  RH  034%=      5-min Rain = 0
KMC1 111957Z 14009KT 34/16 A3007 RMK A01 T03430162  RH  034%=      5-min Rain = 0
KMC1 111958Z 13009KT 35/15 A3007 RMK A01 T03460154  RH  032%=      5-min Rain = 0
KMC1 111959Z 14007KT 34/15 A3007 RMK A01 T03440153  RH  032%=      5-min Rain = 0
KMC1 112000Z 14004KT 34/16 A3007 RMK A01 T03440160  RH  033%=      5-min Rain = 0
KMC1 112001Z 15006KT 35/16 A3007 RMK A01 T03480158  RH  032%=      5-min Rain = 0
KMC1 112002Z 14006KT 35/16 A3007 RMK A01 T03500159  RH  032%=      5-min Rain = 0
KMC1 112003Z 13004KT 35/15 A3007 RMK A01 T03510154  RH  031%=      5-min Rain = 0
KMC1 112004Z 14004KT 35/15 A3007 RMK A01 T03490151  RH  031%=      5-min Rain = 0
KMC1 112005Z 14006KT 35/16 A3007 RMK A01 T03460155  RH  032%=      5-min Rain = 0
KMC1 112006Z 12007KT 35/16 A3007 RMK A01 T03460159  RH  033%=      5-min Rain = 0
KMC1 112007Z 10005KT 35/16 A3007 RMK A01 T03470155  RH  032%=      5-min Rain = 0
KMC1 112008Z 08005KT 34/16 A3007 RMK A01 T03440156  RH  032%=      5-min Rain = 0
KMC1 112009Z 09004KT 34/15 A3007 RMK A01 T03430153  RH  032%=      5-min Rain = 0
KMC1 112010Z 10004KT 34/16 A3007 RMK A01 T03420155  RH  033%=      5-min Rain = 0
KMC1 112011Z 08002KT 34/15 A3007 RMK A01 T03390151  RH  032%=      5-min Rain = 0
KMC1 112012Z 08001KT 34/15 A3006 RMK A01 T03370152  RH  033%=      5-min Rain = 0
KMC1 112013Z 08001KT 34/16 A3006 RMK A01 T03360159  RH  035%=      5-min Rain = 0
KMC1 112014Z 15005KT 34/16 A3006 RMK A01 T03360158  RH  034%=      5-min Rain = 0
KMC1 112015Z 13006KT 34/16 A3006 RMK A01 T03370159  RH  034%=      5-min Rain = 0
KMC1 112016Z 14009KT 34/16 A3006 RMK A01 T03380158  RH  034%=      5-min Rain = 0
KMC1 112017Z 14010KT 34/15 A3006 RMK A01 T03380152  RH  033%=      5-min Rain = 0
KMC1 112018Z 16007KT 34/15 A3006 RMK A01 T03370152  RH  033%=      5-min Rain = 0
KMC1 112019Z 17006KT 34/15 A3006 RMK A01 T03350153  RH  034%=      5-min Rain = 0
KMC1 112020Z 12004KT 34/16 A3006 RMK A01 T03370164  RH  036%=      5-min Rain = 0
KMC1 112021Z 14007KT 34/16 A3006 RMK A01 T03430160  RH  033%=      5-min Rain = 0
KMC1 112022Z 14008KT 35/16 A3006 RMK A01 T03460161  RH  033%=      5-min Rain = 0
KMC1 112023Z 14007KT 35/16 A3006 RMK A01 T03480157  RH  032%=      5-min Rain = 0
KMC1 112024Z 15005KT 35/16 A3006 RMK A01 T03480156  RH  032%=      5-min Rain = 0
KMC1 112025Z 14005KT 35/16 A3006 RMK A01 T03460156  RH  032%=      5-min Rain = 0
KMC1 112026Z 13005KT 35/16 A3006 RMK A01 T03450162  RH  034%=      5-min Rain = 0
KMC1 112027Z 14006KT 35/17 A3006 RMK A01 T03500169  RH  034%=      5-min Rain = 0
KMC1 112028Z 12007KT 36/17 A3006 RMK A01 T03550168  RH  033%=      5-min Rain = 0
KMC1 112029Z 11007KT 36/16 A3006 RMK A01 T03550163  RH  032%=      5-min Rain = 0
KMC1 112030Z 08007KT 35/16 A3006 RMK A01 T03520163  RH  033%=      5-min Rain = 0
KMC1 112031Z 09004G9KT 35/16 A3006 RMK A01 T03500161  RH  032%=      5-min Rain = 0
KMC1 112032Z 10002KT 35/16 A3006 RMK A01 T03480160  RH  033%=      5-min Rain = 0
KMC1 112033Z 12005KT 35/16 A3006 RMK A01 T03460163  RH  034%=      5-min Rain = 0
KMC1 112034Z 12005KT 34/16 A3006 RMK A01 T03440156  RH  033%=      5-min Rain = 0
KMC1 112035Z 12003G8KT 34/16 A3006 RMK A01 T03400155  RH  033%=      5-min Rain = 0
KMC1 112036Z 11006KT 34/16 A3006 RMK A01 T03380160  RH  034%=      5-min Rain = 0
KMC1 112037Z 11005KT 34/16 A3006 RMK A01 T03400164  RH  035%=      5-min Rain = 0
KMC1 112038Z 12005KT 34/16 A3006 RMK A01 T03420163  RH  034%=      5-min Rain = 0
KMC1 112039Z 12005KT 34/16 A3005 RMK A01 T03410162  RH  034%=      5-min Rain = 0
KMC1 112040Z 15006KT 34/16 A3005 RMK A01 T03400164  RH  035%=      5-min Rain = 0
KMC1 112041Z 16004G10KT 34/16 A3005 RMK A01 T03390161  RH  035%=      5-min Rain = 0
KMC1 112042Z 13010KT 34/16 A3005 RMK A01 T03380157  RH  034%=      5-min Rain = 0
KMC1 112043Z 14008KT 34/16 A3006 RMK A01 T03400158  RH  034%=      5-min Rain = 0
KMC1 112044Z 13008KT 34/15 A3005 RMK A01 T03430153  RH  032%=      5-min Rain = 0
KMC1 112045Z 16004KT 34/16 A3005 RMK A01 T03440159  RH  033%=      5-min Rain = 0
KMC1 112046Z 16007KT 35/16 A3005 RMK A01 T03490157  RH  032%=      5-min Rain = 0
KMC1 112047Z 16004KT 35/16 A3005 RMK A01 T03500157  RH  032%=      5-min Rain = 0
KMC1 112048Z 12004KT 35/16 A3005 RMK A01 T03500157  RH  032%=      5-min Rain = 0
KMC1 112049Z 15006KT 35/16 A3005 RMK A01 T03500159  RH  032%=      5-min Rain = 0
KMC1 112050Z 14006KT 35/16 A3005 RMK A01 T03480158  RH  032%=      5-min Rain = 0
KMC1 112051Z 13009KT 35/16 A3005 RMK A01 T03470162  RH  033%=      5-min Rain = 0
KMC1 112052Z 12010G17KT 35/17 A3005 RMK A01 T03460166  RH  034%=      5-min Rain = 0
KMC1 112053Z 12010KT 35/17 A3005 RMK A01 T03470167  RH  034%=      5-min Rain = 0
KMC1 112054Z 17007KT 35/16 A3005 RMK A01 T03460163  RH  034%=      5-min Rain = 0
KMC1 112055Z 17006KT 34/16 A3005 RMK A01 T03440160  RH  033%=      5-min Rain = 0
KMC1 112056Z 17005KT 34/16 A3005 RMK A01 T03420163  RH  034%=      5-min Rain = 0
KMC1 112057Z 18005KT 34/16 A3005 RMK A01 T03410161  RH  034%=      5-min Rain = 0
KMC1 112058Z 19006KT 34/16 A3005 RMK A01 T03400160  RH  034%=      5-min Rain = 0
KMC1 112059Z 18006KT 34/16 A3005 RMK A01 T03380158  RH  034%=      5-min Rain = 0
KMC1 112100Z 20004KT 34/16 A3005 RMK A01 T03350160  RH  035%=      5-min Rain = 0
KMC1 112101Z 22002KT 34/16 A3005 RMK A01 T03350161  RH  035%=      5-min Rain = 0
KMC1 112102Z 18003KT 34/16 A3005 RMK A01 T03350160  RH  035%=      5-min Rain = 0
KMC1 112103Z 15003KT 34/16 A3005 RMK A01 T03360163  RH  036%=      5-min Rain = 0
KMC1 112104Z 14007KT 34/17 A3005 RMK A01 T03400165  RH  035%=      5-min Rain = 0
KMC1 112105Z 14006KT 34/16 A3005 RMK A01 T03430161  RH  034%=      5-min Rain = 0
KMC1 112106Z 14008KT 35/17 A3004 RMK A01 T03460167  RH  034%=      5-min Rain = 0
KMC1 112107Z 15008KT 35/16 A3004 RMK A01 T03490163  RH  033%=      5-min Rain = 0
KMC1 112108Z 16006KT 35/16 A3004 RMK A01 T03480162  RH  033%=      5-min Rain = 0
KMC1 112109Z 12006KT 35/17 A3004 RMK A01 T03480166  RH  034%=      5-min Rain = 0
KMC1 112110Z 10007KT 35/16 A3004 RMK A01 T03490163  RH  033%=      5-min Rain = 0
KMC1 112111Z 15002KT 35/16 A3004 RMK A01 T03490157  RH  032%=      5-min Rain = 0
KMC1 112112Z 14001KT 35/16 A3004 RMK A01 T03460156  RH  032%=      5-min Rain = 0
KMC1 112113Z 17002KT 35/16 A3004 RMK A01 T03450162  RH  034%=      5-min Rain = 0
KMC1 112114Z 17007KT 35/16 A3004 RMK A01 T03450163  RH  034%=      5-min Rain = 0
KMC1 112115Z 17008KT 34/17 A3004 RMK A01 T03440165  RH  034%=      5-min Rain = 0
KMC1 112116Z 14006KT 34/16 A3004 RMK A01 T03430162  RH  034%=      5-min Rain = 0
KMC1 112117Z 13006KT 34/17 A3004 RMK A01 T03420165  RH  035%=      5-min Rain = 0
KMC1 112118Z 10008KT 34/17 A3003 RMK A01 T03430168  RH  035%=      5-min Rain = 0
KMC1 112119Z 10007KT 35/17 A3003 RMK A01 T03460165  RH  034%=      5-min Rain = 0
KMC1 112120Z 11008KT 35/16 A3003 RMK A01 T03490164  RH  033%=      5-min Rain = 0
KMC1 112121Z 12008KT 35/16 A3003 RMK A01 T03480163  RH  033%=      5-min Rain = 0
KMC1 112122Z 12005KT 35/16 A3003 RMK A01 T03470162  RH  033%=      5-min Rain = 0
KMC1 112123Z 12006KT 35/16 A3003 RMK A01 T03470161  RH  033%=      5-min Rain = 0
KMC1 112124Z 09007KT 35/16 A3003 RMK A01 T03480161  RH  033%=      5-min Rain = 0
KMC1 112125Z 10009G14KT 35/16 A3003 RMK A01 T03490162  RH  033%=      5-min Rain = 0
KMC1 112126Z 10009KT 35/16 A3003 RMK A01 T03510160  RH  032%=      5-min Rain = 0
KMC1 112127Z 09007KT 35/16 A3003 RMK A01 T03510162  RH  033%=      5-min Rain = 0
KMC1 112128Z 10007KT 35/16 A3003 RMK A01 T03500162  RH  033%=      5-min Rain = 0
KMC1 112129Z 12008KT 35/16 A3003 RMK A01 T03500162  RH  033%=      5-min Rain = 0
KMC1 112130Z 14007KT 35/16 A3003 RMK A01 T03470156  RH  032%=      5-min Rain = 0
KMC1 112131Z 15005G10KT 34/16 A3003 RMK A01 T03440161  RH  034%=      5-min Rain = 0
KMC1 112132Z 14008KT 34/16 A3003 RMK A01 T03430162  RH  034%=      5-min Rain = 0
KMC1 112133Z 15006KT 34/16 A3003 RMK A01 T03420157  RH  033%=      5-min Rain = 0
KMC1 112134Z 17007KT 34/16 A3003 RMK A01 T03410160  RH  034%=      5-min Rain = 0
KMC1 112135Z 15006KT 34/16 A3003 RMK A01 T03390160  RH  034%=      5-min Rain = 0
KMC1 112136Z 16008KT 34/16 A3003 RMK A01 T03380159  RH  034%=      5-min Rain = 0
KMC1 112137Z 17008KT 34/16 A3003 RMK A01 T03370158  RH  034%=      5-min Rain = 0
KMC1 112138Z 16006KT 34/16 A3003 RMK A01 T03370160  RH  035%=      5-min Rain = 0
KMC1 112139Z 17007KT 34/16 A3003 RMK A01 T03380163  RH  035%=      5-min Rain = 0
KMC1 112140Z 15004KT 34/17 A3002 RMK A01 T03440165  RH  035%=      5-min Rain = 0
KMC1 112141Z 14002KT 35/16 A3002 RMK A01 T03470162  RH  033%=      5-min Rain = 0
KMC1 112142Z 15004KT 35/17 A3002 RMK A01 T03490167  RH  034%=      5-min Rain = 0
KMC1 112143Z 14010KT 35/17 A3002 RMK A01 T03530168  RH  033%=      5-min Rain = 0
KMC1 112144Z 14008KT 36/16 A3003 RMK A01 T03550164  RH  032%=      5-min Rain = 0
KMC1 112145Z 14007KT 36/17 A3002 RMK A01 T03550166  RH  033%=      5-min Rain = 0
KMC1 112146Z 13009KT 35/16 A3003 RMK A01 T03540163  RH  032%=      5-min Rain = 0
KMC1 112147Z 14006KT 35/16 A3002 RMK A01 T03530162  RH  032%=      5-min Rain = 0
KMC1 112148Z 14006KT 35/17 A3002 RMK A01 T03510165  RH  033%=      5-min Rain = 0
KMC1 112149Z 13007KT 35/16 A3002 RMK A01 T03490164  RH  033%=      5-min Rain = 0
KMC1 112150Z 14005KT 35/16 A3002 RMK A01 T03470164  RH  034%=      5-min Rain = 0
KMC1 112151Z 13007KT 35/16 A3002 RMK A01 T03450164  RH  034%=      5-min Rain = 0
KMC1 112152Z 14008KT 34/16 A3002 RMK A01 T03420161  RH  034%=      5-min Rain = 0
KMC1 112153Z 14008KT 34/16 A3002 RMK A01 T03400161  RH  034%=      5-min Rain = 0
KMC1 112154Z 14008KT 34/16 A3002 RMK A01 T03390161  RH  035%=      5-min Rain = 0
KMC1 112155Z 15008KT 34/16 A3002 RMK A01 T03380163  RH  035%=      5-min Rain = 0
KMC1 112156Z 15006KT 34/16 A3002 RMK A01 T03370161  RH  035%=      5-min Rain = 0
KMC1 112157Z 16004KT 34/16 A3002 RMK A01 T03370164  RH  036%=      5-min Rain = 0
KMC1 112158Z 14003KT 34/16 A3002 RMK A01 T03360163  RH  036%=      5-min Rain = 0
KMC1 112159Z 14005KT 34/17 A3002 RMK A01 T03380170  RH  037%=      5-min Rain = 0
KMC1 112200Z 13009KT 34/16 A3002 RMK A01 T03430164  RH  034%=      5-min Rain = 0
KMC1 112201Z 14009KT 35/16 A3002 RMK A01 T03450163  RH  034%=      5-min Rain = 0
KMC1 112202Z 15009G14KT 35/17 A3002 RMK A01 T03470165  RH  034%=      5-min Rain = 0
KMC1 112203Z 18007G12KT 35/16 A3002 RMK A01 T03480161  RH  033%=      5-min Rain = 0
KMC1 112204Z 15007G12KT 35/17 A3002 RMK A01 T03480166  RH  034%=      5-min Rain = 0
KMC1 112205Z 16004KT 35/16 A3002 RMK A01 T03490163  RH  033%=      5-min Rain = 0
KMC1 112206Z 15005KT 35/16 A3002 RMK A01 T03500163  RH  033%=      5-min Rain = 0
KMC1 112207Z 13005KT 35/17 A3002 RMK A01 T03500166  RH  034%=      5-min Rain = 0
KMC1 112208Z 14008KT 35/17 A3002 RMK A01 T03500165  RH  033%=      5-min Rain = 0
KMC1 112209Z 12010KT 35/16 A3002 RMK A01 T03510163  RH  033%=      5-min Rain = 0
KMC1 112210Z 11010KT 35/16 A3001 RMK A01 T03510162  RH  033%=      5-min Rain = 0
KMC1 112211Z 12009KT 35/16 A3001 RMK A01 T03500163  RH  033%=      5-min Rain = 0
KMC1 112212Z 13007KT 35/16 A3001 RMK A01 T03500163  RH  033%=      5-min Rain = 0
KMC1 112213Z 15005KT 35/17 A3001 RMK A01 T03500165  RH  033%=      5-min Rain = 0
KMC1 112214Z 16008KT 35/16 A3001 RMK A01 T03490164  RH  033%=      5-min Rain = 0
KMC1 112215Z 15008KT 35/16 A3001 RMK A01 T03460162  RH  033%=      5-min Rain = 0
KMC1 112216Z 15006KT 34/16 A3001 RMK A01 T03430160  RH  034%=      5-min Rain = 0
KMC1 112217Z 14007KT 34/16 A3001 RMK A01 T03410161  RH  034%=      5-min Rain = 0
KMC1 112218Z 15006KT 34/16 A3001 RMK A01 T03400161  RH  034%=      5-min Rain = 0
KMC1 112219Z 14008KT 34/16 A3001 RMK A01 T03390162  RH  035%=      5-min Rain = 0
KMC1 112220Z 15005KT 34/16 A3001 RMK A01 T03390162  RH  035%=      5-min Rain = 0
KMC1 112221Z 14004KT 34/16 A3001 RMK A01 T03380162  RH  035%=      5-min Rain = 0
KMC1 112222Z 14004KT 34/17 A3001 RMK A01 T03380165  RH  036%=      5-min Rain = 0
KMC1 112223Z 13007KT 34/16 A3001 RMK A01 T03380162  RH  035%=      5-min Rain = 0
KMC1 112224Z 13009KT 34/16 A3001 RMK A01 T03410162  RH  034%=      5-min Rain = 0
KMC1 112225Z 14007KT 34/16 A3001 RMK A01 T03440160  RH  033%=      5-min Rain = 0
KMC1 112226Z 15007KT 35/16 A3001 RMK A01 T03450160  RH  033%=      5-min Rain = 0
KMC1 112227Z 17006KT 35/16 A3001 RMK A01 T03470163  RH  034%=      5-min Rain = 0
KMC1 112228Z 16006KT 35/17 A3001 RMK A01 T03490166  RH  034%=      5-min Rain = 0
KMC1 112229Z 15009KT 35/16 A3001 RMK A01 T03510164  RH  033%=      5-min Rain = 0
KMC1 112230Z 14009KT 35/16 A3001 RMK A01 T03510162  RH  033%=      5-min Rain = 0
KMC1 112231Z 14008KT 35/16 A3001 RMK A01 T03500163  RH  033%=      5-min Rain = 0
KMC1 112232Z 15006KT 35/16 A3001 RMK A01 T03500162  RH  033%=      5-min Rain = 0
KMC1 112233Z 15008KT 35/17 A30 RMK A01 T03500165  RH  033%=      5-min Rain = 0
KMC1 112234Z 15008KT 35/16 A30 RMK A01 T03520162  RH  032%=      5-min Rain = 0
KMC1 112235Z 15006KT 35/17 A30 RMK A01 T03520165  RH  033%=      5-min Rain = 0
KMC1 112236Z 14006KT 35/17 A30 RMK A01 T03530165  RH  033%=      5-min Rain = 0
KMC1 112237Z 13007KT 35/16 A30 RMK A01 T03540164  RH  032%=      5-min Rain = 0
KMC1 112238Z 14006KT 35/17 A30 RMK A01 T03530166  RH  033%=      5-min Rain = 0
KMC1 112239Z 16008KT 35/17 A30 RMK A01 T03530165  RH  033%=      5-min Rain = 0
KMC1 112240Z 16008KT 35/16 A30 RMK A01 T03510162  RH  032%=      5-min Rain = 0
KMC1 112241Z 16010KT 35/16 A30 RMK A01 T03480160  RH  033%=      5-min Rain = 0
KMC1 112242Z 15007KT 35/16 A30 RMK A01 T03460160  RH  033%=      5-min Rain = 0
KMC1 112243Z 12010KT 35/16 A30 RMK A01 T03460162  RH  033%=      5-min Rain = 0
KMC1 112244Z 11008KT 35/16 A30 RMK A01 T03460160  RH  033%=      5-min Rain = 0
KMC1 112245Z 14007G12KT 34/16 A30 RMK A01 T03440159  RH  033%=      5-min Rain = 0
KMC1 112246Z 16007KT 34/16 A30 RMK A01 T03430161  RH  034%=      5-min Rain = 0
KMC1 112247Z 14005KT 34/16 A30 RMK A01 T03430164  RH  035%=      5-min Rain = 0
KMC1 112248Z 14009KT 35/16 A30 RMK A01 T03460162  RH  033%=      5-min Rain = 0
KMC1 112249Z 15007KT 35/16 A30 RMK A01 T03480162  RH  033%=      5-min Rain = 0
KMC1 112250Z 16008KT 35/16 A30 RMK A01 T03490161  RH  033%=      5-min Rain = 0
KMC1 112251Z 16006KT 35/16 A30 RMK A01 T03500164  RH  033%=      5-min Rain = 0
KMC1 112252Z 17008KT 35/16 A30 RMK A01 T03520162  RH  032%=      5-min Rain = 0
KMC1 112253Z 17007KT 35/16 A30 RMK A01 T03520160  RH  032%=      5-min Rain = 0
KMC1 112254Z 16008KT 35/16 A30 RMK A01 T03510159  RH  032%=      5-min Rain = 0
KMC1 112255Z 16009KT 35/16 A30 RMK A01 T03500160  RH  032%=      5-min Rain = 0
KMC1 112256Z 13008KT 35/16 A30 RMK A01 T03500161  RH  032%=      5-min Rain = 0
KMC1 112257Z 15006KT 35/16 A30 RMK A01 T03500157  RH  032%=      5-min Rain = 0
KMC1 112258Z 13007KT 35/16 A2999 RMK A01 T03500160  RH  032%=      5-min Rain = 0
KMC1 112259Z 13008KT 35/16 A30 RMK A01 T03500161  RH  032%=      5-min Rain = 0
KMC1 112300Z 10007KT 35/16 A2999 RMK A01 T03510159  RH  032%=      5-min Rain = 0
KMC1 112301Z 13007KT 35/16 A30 RMK A01 T03510162  RH  033%=      5-min Rain = 0
KMC1 112302Z 14007KT 35/16 A30 RMK A01 T03530162  RH  032%=      5-min Rain = 0
KMC1 112303Z 14006KT 35/16 A2999 RMK A01 T03530157  RH  031%=      5-min Rain = 0
KMC1 112304Z 15009G14KT 35/16 A30 RMK A01 T03520163  RH  032%=      5-min Rain = 0
KMC1 112305Z 14008KT 35/16 A2999 RMK A01 T03530160  RH  032%=      5-min Rain = 0
KMC1 112306Z 14011KT 35/16 A30 RMK A01 T03540160  RH  032%=      5-min Rain = 0
KMC1 112307Z 13012KT 35/16 A2999 RMK A01 T03540158  RH  031%=      5-min Rain = 0
KMC1 112308Z 14010KT 35/16 A30 RMK A01 T03530158  RH  031%=      5-min Rain = 0
KMC1 112309Z 14010KT 35/16 A30 RMK A01 T03530159  RH  032%=      5-min Rain = 0
KMC1 112310Z 12010KT 35/16 A2999 RMK A01 T03520155  RH  031%=      5-min Rain = 0
KMC1 112311Z 14008KT 35/15 A2999 RMK A01 T03500154  RH  031%=      5-min Rain = 0
KMC1 112312Z 13009KT 35/16 A2999 RMK A01 T03500157  RH  032%=      5-min Rain = 0
KMC1 112313Z 12009KT 35/16 A2999 RMK A01 T03500155  RH  031%=      5-min Rain = 0
KMC1 112314Z 13008KT 35/15 A2999 RMK A01 T03500154  RH  031%=      5-min Rain = 0
KMC1 112315Z 13008G13KT 35/16 A2999 RMK A01 T03510159  RH  032%=      5-min Rain = 0
KMC1 112316Z 14012KT 35/15 A2999 RMK A01 T03510152  RH  031%=      5-min Rain = 0
KMC1 112317Z 15009KT 35/16 A2999 RMK A01 T03500156  RH  031%=      5-min Rain = 0
KMC1 112318Z 13005KT 35/16 A2999 RMK A01 T03500158  RH  032%=      5-min Rain = 0
KMC1 112319Z 12009KT 35/16 A2999 RMK A01 T03520158  RH  031%=      5-min Rain = 0
KMC1 112320Z 12008KT 35/16 A2999 RMK A01 T03530155  RH  031%=      5-min Rain = 0
KMC1 112321Z 13006KT 35/16 A2999 RMK A01 T03510155  RH  031%=      5-min Rain = 0
KMC1 112322Z 11007KT 35/16 A2999 RMK A01 T03510157  RH  032%=      5-min Rain = 0
KMC1 112323Z 12006KT 35/15 A2999 RMK A01 T03510153  RH  031%=      5-min Rain = 0
KMC1 112324Z 13005KT 35/16 A2999 RMK A01 T03510155  RH  031%=      5-min Rain = 0
KMC1 112325Z 13007G13KT 35/15 A2999 RMK A01 T03510154  RH  031%=      5-min Rain = 0
KMC1 112326Z 14010KT 35/16 A2999 RMK A01 T03500155  RH  031%=      5-min Rain = 0
KMC1 112327Z 13009KT 35/15 A2999 RMK A01 T03510154  RH  031%=      5-min Rain = 0
KMC1 112328Z 15009KT 35/16 A2999 RMK A01 T03510155  RH  031%=      5-min Rain = 0
KMC1 112329Z 16010KT 35/15 A2999 RMK A01 T03510154  RH  031%=      5-min Rain = 0
KMC1 112330Z 15009KT 35/16 A2999 RMK A01 T03510155  RH  031%=      5-min Rain = 0
KMC1 112331Z 14009KT 35/15 A2999 RMK A01 T03510154  RH  031%=      5-min Rain = 0
KMC1 112332Z 15006KT 35/15 A2999 RMK A01 T03510154  RH  031%=      5-min Rain = 0
KMC1 112333Z 16007KT 35/16 A2999 RMK A01 T03510155  RH  031%=      5-min Rain = 0
KMC1 112334Z 16006KT 35/16 A2999 RMK A01 T03510155  RH  031%=      5-min Rain = 0
KMC1 112335Z 17007KT 35/16 A2999 RMK A01 T03510155  RH  031%=      5-min Rain = 0
KMC1 112336Z 13005KT 35/16 A2999 RMK A01 T03520155  RH  031%=      5-min Rain = 0
KMC1 112337Z 12007KT 35/15 A2999 RMK A01 T03510151  RH  030%=      5-min Rain = 0
KMC1 112338Z 15007KT 35/15 A2999 RMK A01 T03490152  RH  031%=      5-min Rain = 0
KMC1 112339Z 12009KT 35/16 A2999 RMK A01 T03490156  RH  032%=      5-min Rain = 0
KMC1 112340Z 12008KT 35/15 A2999 RMK A01 T03510152  RH  031%=      5-min Rain = 0
KMC1 112341Z 13008KT 35/15 A2999 RMK A01 T03500153  RH  031%=      5-min Rain = 0
KMC1 112342Z 13009KT 35/15 A2999 RMK A01 T03490150  RH  031%=      5-min Rain = 0
KMC1 112343Z 13008KT 35/15 A2999 RMK A01 T03470149  RH  031%=      5-min Rain = 0
KMC1 112344Z 13009KT 35/15 A2999 RMK A01 T03470151  RH  031%=      5-min Rain = 0
KMC1 112345Z 13010KT 35/15 A2999 RMK A01 T03470151  RH  031%=      5-min Rain = 0
KMC1 112346Z 14010KT 35/15 A2999 RMK A01 T03470152  RH  031%=      5-min Rain = 0
KMC1 112347Z 13010KT 35/15 A2999 RMK A01 T03470150  RH  031%=      5-min Rain = 0
KMC1 112348Z 14008KT 35/15 A2999 RMK A01 T03460151  RH  031%=      5-min Rain = 0
KMC1 112349Z 15007KT 35/15 A2999 RMK A01 T03460152  RH  031%=      5-min Rain = 0
KMC1 112350Z 15008KT 35/15 A2999 RMK A01 T03460152  RH  031%=      5-min Rain = 0
KMC1 112351Z 14008KT 35/15 A2999 RMK A01 T03470154  RH  032%=      5-min Rain = 0
KMC1 112352Z 12007KT 35/15 A2999 RMK A01 T03480153  RH  031%=      5-min Rain = 0
KMC1 112353Z 12007KT 35/15 A2999 RMK A01 T03480151  RH  031%=      5-min Rain = 0
KMC1 112354Z 14009KT 35/15 A2999 RMK A01 T03480151  RH  031%=      5-min Rain = 0
KMC1 112355Z 12008KT 35/15 A2999 RMK A01 T03470149  RH  031%=      5-min Rain = 0
KMC1 112356Z 12010KT 35/15 A2999 RMK A01 T03460150  RH  031%=      5-min Rain = 0
KMC1 112357Z 15006G11KT 35/15 A2999 RMK A01 T03460153  RH  032%=      5-min Rain = 0
KMC1 112358Z 14010KT 35/15 A2999 RMK A01 T03470153  RH  031%=      5-min Rain = 0
KMC1 112359Z 13010KT 35/15 A2999 RMK A01 T03470150  RH  031%=      5-min Rain = 0
KMC1 120000Z 13008KT 35/15 A2999 RMK A01 T03460152  RH  031%=      5-min Rain = 0
KMC1 120001Z 12008KT 35/15 A2999 RMK A01 T03450152  RH  031%=      5-min Rain = 0
KMC1 120002Z 13006KT 35/15 A2999 RMK A01 T03450153  RH  032%=      5-min Rain = 0
KMC1 120003Z 13008KT 35/16 A2999 RMK A01 T03450156  RH  032%=      5-min Rain = 0
KMC1 120004Z 15008KT 35/15 A2999 RMK A01 T03460153  RH  032%=      5-min Rain = 0
KMC1 120005Z 15007KT 35/15 A2999 RMK A01 T03460153  RH  032%=      5-min Rain = 0
KMC1 120006Z 14007KT 35/16 A2999 RMK A01 T03460155  RH  032%=      5-min Rain = 0
KMC1 120007Z 12008KT 35/16 A2999 RMK A01 T03470155  RH  032%=      5-min Rain = 0
KMC1 120008Z 12009KT 35/15 A2999 RMK A01 T03460151  RH  031%=      5-min Rain = 0
KMC1 120009Z 13008G13KT 35/15 A2999 RMK A01 T03450151  RH  031%=      5-min Rain = 0
KMC1 120010Z 13007KT 34/15 A2999 RMK A01 T03440151  RH  032%=      5-min Rain = 0
KMC1 120011Z 15010KT 34/15 A2999 RMK A01 T03430152  RH  032%=      5-min Rain = 0
KMC1 120012Z 15010KT 34/15 A2999 RMK A01 T03430154  RH  032%=      5-min Rain = 0
KMC1 120013Z 16007KT 34/15 A2999 RMK A01 T03430153  RH  032%=      5-min Rain = 0
KMC1 120014Z 14008KT 34/16 A2999 RMK A01 T03440155  RH  032%=      5-min Rain = 0
KMC1 120015Z 14009KT 34/15 A2999 RMK A01 T03440154  RH  032%=      5-min Rain = 0
KMC1 120016Z 14007KT 34/15 A2999 RMK A01 T03440153  RH  032%=      5-min Rain = 0
KMC1 120017Z 14009KT 34/15 A2999 RMK A01 T03440154  RH  032%=      5-min Rain = 0
KMC1 120018Z 14008KT 34/15 A2999 RMK A01 T03440153  RH  032%=      5-min Rain = 0
KMC1 120019Z 15010KT 34/15 A2999 RMK A01 T03430151  RH  032%=      5-min Rain = 0
KMC1 120020Z 14011KT 34/15 A2999 RMK A01 T03420151  RH  032%=      5-min Rain = 0
KMC1 120021Z 13010KT 34/15 A2999 RMK A01 T03410151  RH  032%=      5-min Rain = 0
KMC1 120022Z 14009G14KT 34/16 A2999 RMK A01 T03400155  RH  033%=      5-min Rain = 0
KMC1 120023Z 14010KT 34/16 A2999 RMK A01 T03400155  RH  033%=      5-min Rain = 0
KMC1 120024Z 14008KT 34/16 A2999 RMK A01 T03390158  RH  034%=      5-min Rain = 0
KMC1 120025Z 14009KT 34/16 A2999 RMK A01 T03390158  RH  034%=      5-min Rain = 0
KMC1 120026Z 14008KT 34/16 A2999 RMK A01 T03390158  RH  034%=      5-min Rain = 0
KMC1 120027Z 14010G15KT 34/16 A2999 RMK A01 T03390156  RH  033%=      5-min Rain = 0
KMC1 120028Z 14007KT 34/16 A2999 RMK A01 T03380156  RH  034%=      5-min Rain = 0
KMC1 120029Z 16007KT 34/16 A2999 RMK A01 T03380159  RH  034%=      5-min Rain = 0
KMC1 120030Z 15009G15KT 34/16 A2999 RMK A01 T03380158  RH  034%=      5-min Rain = 0
KMC1 120031Z 14009KT 34/16 A2999 RMK A01 T03380158  RH  034%=      5-min Rain = 0
KMC1 120032Z 15007KT 34/16 A30 RMK A01 T03380159  RH  034%=      5-min Rain = 0
KMC1 120033Z 15008KT 34/16 A30 RMK A01 T03380159  RH  034%=      5-min Rain = 0
KMC1 120034Z 15007G12KT 34/16 A30 RMK A01 T03370158  RH  034%=      5-min Rain = 0
KMC1 120035Z 14009KT 34/16 A30 RMK A01 T03370156  RH  034%=      5-min Rain = 0
KMC1 120036Z 15005KT 34/16 A30 RMK A01 T03370156  RH  034%=      5-min Rain = 0
KMC1 120037Z 14007KT 34/16 A30 RMK A01 T03360157  RH  034%=      5-min Rain = 0
KMC1 120038Z 15006KT 34/16 A30 RMK A01 T03360158  RH  034%=      5-min Rain = 0
KMC1 120039Z 14009G14KT 34/16 A30 RMK A01 T03360159  RH  035%=      5-min Rain = 0
KMC1 120040Z 14010KT 34/16 A30 RMK A01 T03350157  RH  034%=      5-min Rain = 0
KMC1 120041Z 14009KT 34/16 A30 RMK A01 T03350157  RH  034%=      5-min Rain = 0
KMC1 120042Z 15007KT 33/16 A30 RMK A01 T03340157  RH  034%=      5-min Rain = 0
KMC1 120043Z 15007KT 33/16 A30 RMK A01 T03340158  RH  035%=      5-min Rain = 0
KMC1 120044Z 14007G13KT 33/16 A30 RMK A01 T03340160  RH  035%=      5-min Rain = 0
KMC1 120045Z 14009KT 33/16 A30 RMK A01 T03340159  RH  035%=      5-min Rain = 0
KMC1 120046Z 14008KT 33/16 A30 RMK A01 T03330159  RH  035%=      5-min Rain = 0
KMC1 120047Z 15010KT 33/16 A30 RMK A01 T03330159  RH  035%=      5-min Rain = 0
KMC1 120048Z 14010KT 33/16 A30 RMK A01 T03320158  RH  035%=      5-min Rain = 0
KMC1 120049Z 14010KT 33/16 A30 RMK A01 T03310158  RH  035%=      5-min Rain = 0
KMC1 120050Z 14010KT 33/16 A30 RMK A01 T03310159  RH  036%=      5-min Rain = 0
KMC1 120051Z 14008KT 33/16 A30 RMK A01 T03300159  RH  036%=      5-min Rain = 0
KMC1 120052Z 14008KT 33/16 A30 RMK A01 T03300160  RH  036%=      5-min Rain = 0
KMC1 120053Z 14009KT 33/16 A30 RMK A01 T03300159  RH  036%=      5-min Rain = 0
KMC1 120054Z 14010KT 33/16 A30 RMK A01 T03300160  RH  036%=      5-min Rain = 0
KMC1 120055Z 14010KT 33/16 A30 RMK A01 T03290160  RH  036%=      5-min Rain = 0
KMC1 120056Z 15009KT 33/16 A30 RMK A01 T03290160  RH  036%=      5-min Rain = 0
KMC1 120057Z 15007KT 33/16 A30 RMK A01 T03280162  RH  037%=      5-min Rain = 0
KMC1 120058Z 15007G12KT 33/16 A30 RMK A01 T03280161  RH  037%=      5-min Rain = 0
KMC1 120059Z 15007KT 33/16 A30 RMK A01 T03270162  RH  037%=      5-min Rain = 0
KMC1 120100Z 15008G13KT 33/16 A30 RMK A01 T03270162  RH  037%=      5-min Rain = 0
KMC1 120101Z 15008KT 33/16 A30 RMK A01 T03270162  RH  037%=      5-min Rain = 0
KMC1 120102Z 15008KT 33/16 A30 RMK A01 T03260161  RH  037%=      5-min Rain = 0
KMC1 120103Z 14006KT 33/16 A30 RMK A01 T03260162  RH  037%=      5-min Rain = 0
KMC1 120104Z 14009KT 33/16 A30 RMK A01 T03260162  RH  037%=      5-min Rain = 0
KMC1 120105Z 14008KT 33/16 A30 RMK A01 T03250162  RH  038%=      5-min Rain = 0
KMC1 120106Z 14007KT 33/16 A30 RMK A01 T03250162  RH  038%=      5-min Rain = 0
KMC1 120107Z 14006KT 33/16 A30 RMK A01 T03250164  RH  038%=      5-min Rain = 0
KMC1 120108Z 14006G11KT 32/17 A30 RMK A01 T03240165  RH  039%=      5-min Rain = 0
KMC1 120109Z 13007KT 32/16 A30 RMK A01 T03230164  RH  039%=      5-min Rain = 0
KMC1 120110Z 13008KT 32/16 A30 RMK A01 T03230164  RH  038%=      5-min Rain = 0
KMC1 120111Z 14006KT 32/16 A30 RMK A01 T03220164  RH  039%=      5-min Rain = 0
KMC1 120112Z 14008KT 32/17 A3001 RMK A01 T03220165  RH  039%=      5-min Rain = 0
KMC1 120113Z 14006KT 32/16 A3001 RMK A01 T03210164  RH  039%=      5-min Rain = 0
KMC1 120114Z 14009KT 32/16 A3001 RMK A01 T03210163  RH  039%=      5-min Rain = 0
KMC1 120115Z 15006KT 32/16 A3001 RMK A01 T03200163  RH  039%=      5-min Rain = 0
KMC1 120116Z 14007G12KT 32/16 A3001 RMK A01 T03200164  RH  039%=      5-min Rain = 0
KMC1 120117Z 14007KT 32/16 A3001 RMK A01 T03200162  RH  039%=      5-min Rain = 0
KMC1 120118Z 14007KT 32/16 A3001 RMK A01 T03190162  RH  039%=      5-min Rain = 0
KMC1 120119Z 14006KT 32/16 A3001 RMK A01 T03190163  RH  039%=      5-min Rain = 0
KMC1 120120Z 14008KT 32/16 A3001 RMK A01 T03190162  RH  039%=      5-min Rain = 0
KMC1 120121Z 14007KT 32/16 A3001 RMK A01 T03180162  RH  039%=      5-min Rain = 0
KMC1 120122Z 14007KT 32/16 A3001 RMK A01 T03180162  RH  039%=      5-min Rain = 0
KMC1 120123Z 14007KT 32/16 A3001 RMK A01 T03170162  RH  039%=      5-min Rain = 0
KMC1 120124Z 14006KT 32/16 A3001 RMK A01 T03160161  RH  039%=      5-min Rain = 0
KMC1 120125Z 14006KT 32/16 A3001 RMK A01 T03160162  RH  040%=      5-min Rain = 0
KMC1 120126Z 14005KT 32/16 A3001 RMK A01 T03150162  RH  040%=      5-min Rain = 0
KMC1 120127Z 14006KT 32/16 A3001 RMK A01 T03150163  RH  040%=      5-min Rain = 0
KMC1 120128Z 14006KT 31/16 A3001 RMK A01 T03140163  RH  040%=      5-min Rain = 0
KMC1 120129Z 14006KT 31/16 A3001 RMK A01 T03130161  RH  040%=      5-min Rain = 0
KMC1 120130Z 13005KT 31/16 A3001 RMK A01 T03130163  RH  040%=      5-min Rain = 0
KMC1 120131Z 14007KT 31/16 A3001 RMK A01 T03120162  RH  040%=      5-min Rain = 0
KMC1 120132Z 14006KT 31/16 A3001 RMK A01 T03120163  RH  041%=      5-min Rain = 0
KMC1 120133Z 14006KT 31/16 A3001 RMK A01 T03120164  RH  041%=      5-min Rain = 0
KMC1 120134Z 13007KT 31/16 A3001 RMK A01 T03110163  RH  041%=      5-min Rain = 0
KMC1 120135Z 14005KT 31/16 A3001 RMK A01 T03110163  RH  041%=      5-min Rain = 0
KMC1 120136Z 14006KT 31/16 A3001 RMK A01 T03110163  RH  041%=      5-min Rain = 0
KMC1 120137Z 14006KT 31/16 A3001 RMK A01 T03100164  RH  041%=      5-min Rain = 0
KMC1 120138Z 14006KT 31/16 A3001 RMK A01 T03090164  RH  042%=      5-min Rain = 0
KMC1 120139Z 13007KT 31/16 A3001 RMK A01 T03090164  RH  042%=      5-min Rain = 0
KMC1 120140Z 14006KT 31/16 A3001 RMK A01 T03080163  RH  042%=      5-min Rain = 0
KMC1 120141Z 14007KT 31/16 A3001 RMK A01 T03080163  RH  042%=      5-min Rain = 0
KMC1 120142Z 14006KT 31/16 A3001 RMK A01 T03080163  RH  042%=      5-min Rain = 0
KMC1 120143Z 13006KT 31/16 A3001 RMK A01 T03080163  RH  042%=      5-min Rain = 0
KMC1 120144Z 13006KT 31/16 A3001 RMK A01 T03070164  RH  042%=      5-min Rain = 0
KMC1 120145Z 14006KT 31/16 A3001 RMK A01 T03070164  RH  042%=      5-min Rain = 0
KMC1 120146Z 14006KT 31/16 A3001 RMK A01 T03060163  RH  042%=      5-min Rain = 0
KMC1 120147Z 14005KT 31/16 A3001 RMK A01 T03050163  RH  042%=      5-min Rain = 0
KMC1 120148Z 14005KT 31/16 A3001 RMK A01 T03050164  RH  043%=      5-min Rain = 0
KMC1 120149Z 14007KT 30/16 A3001 RMK A01 T03040164  RH  043%=      5-min Rain = 0
KMC1 120150Z 15007KT 30/16 A3001 RMK A01 T03040164  RH  043%=      5-min Rain = 0
KMC1 120151Z 14006KT 30/16 A3001 RMK A01 T03030164  RH  043%=      5-min Rain = 0
KMC1 120152Z 15007KT 30/16 A3001 RMK A01 T03030164  RH  043%=      5-min Rain = 0
KMC1 120153Z 14006KT 30/16 A3001 RMK A01 T03020164  RH  043%=      5-min Rain = 0
KMC1 120154Z 14005KT 30/16 A3002 RMK A01 T03020164  RH  044%=      5-min Rain = 0
KMC1 120155Z 15005KT 30/16 A3002 RMK A01 T03010164  RH  043%=      5-min Rain = 0
KMC1 120156Z 14006KT 30/16 A3002 RMK A01 T03010164  RH  044%=      5-min Rain = 0
KMC1 120157Z 14005KT 30/16 A3002 RMK A01 T03010164  RH  044%=      5-min Rain = 0
KMC1 120158Z 15006KT 30/16 A3002 RMK A01 T03000163  RH  044%=      5-min Rain = 0
KMC1 120159Z 15005KT 30/16 A3002 RMK A01 T03010163  RH  044%=      5-min Rain = 0
KMC1 120200Z 14007KT 30/16 A3002 RMK A01 T03000164  RH  044%=      5-min Rain = 0
KMC1 120201Z 14007KT 30/16 A3002 RMK A01 T03000162  RH  043%=      5-min Rain = 0
KMC1 120202Z 14007KT 30/16 A3002 RMK A01 T03000163  RH  044%=      5-min Rain = 0
KMC1 120203Z 15007KT 30/16 A3002 RMK A01 T03000163  RH  044%=      5-min Rain = 0
KMC1 120204Z 14006KT 30/16 A3002 RMK A01 T03000164  RH  044%=      5-min Rain = 0
KMC1 120205Z 15005KT 30/16 A3002 RMK A01 T03000164  RH  044%=      5-min Rain = 0
KMC1 120206Z 15006KT 30/16 A3002 RMK A01 T02990164  RH  044%=      5-min Rain = 0
KMC1 120207Z 15006KT 30/16 A3002 RMK A01 T02990163  RH  044%=      5-min Rain = 0
KMC1 120208Z 14006KT 30/16 A3002 RMK A01 T02980163  RH  044%=      5-min Rain = 0
KMC1 120209Z 14005KT 30/16 A3002 RMK A01 T02980164  RH  044%=      5-min Rain = 0
KMC1 120210Z 14006KT 30/16 A3002 RMK A01 T02980164  RH  044%=      5-min Rain = 0
KMC1 120211Z 15004KT 30/16 A3002 RMK A01 T02970163  RH  044%=      5-min Rain = 0
KMC1 120212Z 15005KT 30/16 A3002 RMK A01 T02970164  RH  044%=      5-min Rain = 0
KMC1 120213Z 15006KT 30/16 A3003 RMK A01 T02970164  RH  045%=      5-min Rain = 0
KMC1 120214Z 15006KT 30/16 A3003 RMK A01 T02970163  RH  045%=      5-min Rain = 0
KMC1 120215Z 14005KT 30/16 A3003 RMK A01 T02970164  RH  045%=      5-min Rain = 0
KMC1 120216Z 15005KT 30/16 A3003 RMK A01 T02960163  RH  045%=      5-min Rain = 0
KMC1 120217Z 15006KT 30/16 A3003 RMK A01 T02960164  RH  045%=      5-min Rain = 0
KMC1 120218Z 14007KT 30/16 A3003 RMK A01 T02960163  RH  045%=      5-min Rain = 0
KMC1 120219Z 15006KT 30/16 A3003 RMK A01 T02960163  RH  045%=      5-min Rain = 0
KMC1 120220Z 14007KT 30/16 A3003 RMK A01 T02950161  RH  044%=      5-min Rain = 0
KMC1 120221Z 14007KT 30/16 A3003 RMK A01 T02960162  RH  044%=      5-min Rain = 0
KMC1 120222Z 15006KT 30/16 A3003 RMK A01 T02960162  RH  044%=      5-min Rain = 0
KMC1 120223Z 14006KT 30/16 A3003 RMK A01 T02960162  RH  044%=      5-min Rain = 0
KMC1 120224Z 14006KT 30/16 A3003 RMK A01 T02960162  RH  045%=      5-min Rain = 0
KMC1 120225Z 14006KT 30/16 A3003 RMK A01 T02950162  RH  045%=      5-min Rain = 0
KMC1 120226Z 14005KT 30/16 A3003 RMK A01 T02950162  RH  045%=      5-min Rain = 0
KMC1 120227Z 14006KT 30/16 A3003 RMK A01 T02950162  RH  045%=      5-min Rain = 0
KMC1 120228Z 14005KT 29/16 A3003 RMK A01 T02940162  RH  045%=      5-min Rain = 0
KMC1 120229Z 14006KT 29/16 A3003 RMK A01 T02930162  RH  045%=      5-min Rain = 0
KMC1 120230Z 15005KT 29/16 A3003 RMK A01 T02930162  RH  045%=      5-min Rain = 0
KMC1 120231Z 14005KT 29/16 A3003 RMK A01 T02920162  RH  045%=      5-min Rain = 0
KMC1 120232Z 14005KT 29/16 A3003 RMK A01 T02920162  RH  045%=      5-min Rain = 0
KMC1 120233Z 14006KT 29/16 A3003 RMK A01 T02920161  RH  045%=      5-min Rain = 0
KMC1 120234Z 15006KT 29/16 A3003 RMK A01 T02920161  RH  045%=      5-min Rain = 0
KMC1 120235Z 14006KT 29/16 A3003 RMK A01 T02920162  RH  045%=      5-min Rain = 0
KMC1 120236Z 15007KT 29/16 A3003 RMK A01 T02920161  RH  045%=      5-min Rain = 0
KMC1 120237Z 14006KT 29/16 A3003 RMK A01 T02920161  RH  045%=      5-min Rain = 0
KMC1 120238Z 14007KT 29/16 A3004 RMK A01 T02920161  RH  045%=      5-min Rain = 0
KMC1 120239Z 14006KT 29/16 A3004 RMK A01 T02920161  RH  045%=      5-min Rain = 0
KMC1 120240Z 15008KT 29/16 A3004 RMK A01 T02920162  RH  045%=      5-min Rain = 0
KMC1 120241Z 14007KT 29/16 A3004 RMK A01 T02920162  RH  045%=      5-min Rain = 0
KMC1 120242Z 14006KT 29/16 A3004 RMK A01 T02920162  RH  045%=      5-min Rain = 0
KMC1 120243Z 14006KT 29/16 A3004 RMK A01 T02920163  RH  046%=      5-min Rain = 0
KMC1 120244Z 14006KT 29/16 A3004 RMK A01 T02910162  RH  046%=      5-min Rain = 0
KMC1 120245Z 15005KT 29/16 A3004 RMK A01 T02910163  RH  046%=      5-min Rain = 0
KMC1 120246Z 14005KT 29/16 A3004 RMK A01 T02910163  RH  046%=      5-min Rain = 0
KMC1 120247Z 14006KT 29/16 A3004 RMK A01 T02910163  RH  046%=      5-min Rain = 0
KMC1 120248Z 15006KT 29/16 A3005 RMK A01 T02900162  RH  046%=      5-min Rain = 0
KMC1 120249Z 14006KT 29/16 A3005 RMK A01 T02900163  RH  046%=      5-min Rain = 0
KMC1 120250Z 14006KT 29/16 A3005 RMK A01 T02900162  RH  046%=      5-min Rain = 0
KMC1 120251Z 14006KT 29/16 A3005 RMK A01 T02900163  RH  046%=      5-min Rain = 0
KMC1 120252Z 14006KT 29/16 A3005 RMK A01 T02900163  RH  046%=      5-min Rain = 0
KMC1 120253Z 15008KT 29/16 A3005 RMK A01 T02890163  RH  046%=      5-min Rain = 0
KMC1 120254Z 15005KT 29/16 A3005 RMK A01 T02890163  RH  046%=      5-min Rain = 0
KMC1 120255Z 14006KT 29/16 A3005 RMK A01 T02890162  RH  046%=      5-min Rain = 0
KMC1 120256Z 14006KT 29/16 A3005 RMK A01 T02890163  RH  046%=      5-min Rain = 0
KMC1 120257Z 14005KT 29/16 A3005 RMK A01 T02890163  RH  047%=      5-min Rain = 0
KMC1 120258Z 15005KT 29/16 A3005 RMK A01 T02880163  RH  047%=      5-min Rain = 0
KMC1 120259Z 14006KT 29/16 A3005 RMK A01 T02880163  RH  047%=      5-min Rain = 0
KMC1 120300Z 15007KT 29/16 A3005 RMK A01 T02880163  RH  047%=      5-min Rain = 0
KMC1 120301Z 13005KT 29/16 A3005 RMK A01 T02870164  RH  047%=      5-min Rain = 0
KMC1 120302Z 14005KT 29/16 A3005 RMK A01 T02870164  RH  047%=      5-min Rain = 0
KMC1 120303Z 14006KT 29/16 A3005 RMK A01 T02860164  RH  047%=      5-min Rain = 0
KMC1 120304Z 14005KT 29/16 A3005 RMK A01 T02860163  RH  047%=      5-min Rain = 0
KMC1 120305Z 14005KT 29/16 A3005 RMK A01 T02850164  RH  048%=      5-min Rain = 0
KMC1 120306Z 14007KT 29/16 A3005 RMK A01 T02850163  RH  048%=      5-min Rain = 0
KMC1 120307Z 13005KT 29/16 A3006 RMK A01 T02850164  RH  048%=      5-min Rain = 0
KMC1 120308Z 14006KT 28/16 A3006 RMK A01 T02840164  RH  048%=      5-min Rain = 0
KMC1 120309Z 14007KT 28/16 A3006 RMK A01 T02840164  RH  048%=      5-min Rain = 0
KMC1 120310Z 14006KT 28/16 A3006 RMK A01 T02840164  RH  048%=      5-min Rain = 0
KMC1 120311Z 14007KT 28/16 A3006 RMK A01 T02840164  RH  048%=      5-min Rain = 0
KMC1 120312Z 14006KT 28/17 A3006 RMK A01 T02840165  RH  048%=      5-min Rain = 0
KMC1 120313Z 14006KT 28/17 A3006 RMK A01 T02840165  RH  048%=      5-min Rain = 0
KMC1 120314Z 14005KT 28/17 A3006 RMK A01 T02840165  RH  049%=      5-min Rain = 0
KMC1 120315Z 14005KT 28/17 A3006 RMK A01 T02830165  RH  049%=      5-min Rain = 0
KMC1 120316Z 15006KT 28/17 A3006 RMK A01 T02830165  RH  049%=      5-min Rain = 0
KMC1 120317Z 15005KT 28/17 A3006 RMK A01 T02820166  RH  049%=      5-min Rain = 0
KMC1 120318Z 14006KT 28/17 A3006 RMK A01 T02820165  RH  049%=      5-min Rain = 0
KMC1 120319Z 15005KT 28/17 A3006 RMK A01 T02820165  RH  049%=      5-min Rain = 0
KMC1 120320Z 15006KT 28/17 A3006 RMK A01 T02810165  RH  049%=      5-min Rain = 0
KMC1 120321Z 14007KT 28/17 A3006 RMK A01 T02810165  RH  049%=      5-min Rain = 0
KMC1 120322Z 15007KT 28/17 A3006 RMK A01 T02810165  RH  049%=      5-min Rain = 0
KMC1 120323Z 15006KT 28/17 A3006 RMK A01 T02820165  RH  049%=      5-min Rain = 0
KMC1 120324Z 15005KT 28/17 A3006 RMK A01 T02810165  RH  049%=      5-min Rain = 0
KMC1 120325Z 15005KT 28/17 A3006 RMK A01 T02820167  RH  050%=      5-min Rain = 0
KMC1 120326Z 15006KT 28/17 A3006 RMK A01 T02810166  RH  050%=      5-min Rain = 0
KMC1 120327Z 14006KT 28/17 A3006 RMK A01 T02800166  RH  050%=      5-min Rain = 0
KMC1 120328Z 15006KT 28/17 A3006 RMK A01 T02800165  RH  050%=      5-min Rain = 0
KMC1 120329Z 14006KT 28/17 A3006 RMK A01 T02800166  RH  050%=      5-min Rain = 0
KMC1 120330Z 14006KT 28/17 A3006 RMK A01 T02800166  RH  050%=      5-min Rain = 0
KMC1 120331Z 14006KT 28/17 A3007 RMK A01 T02800167  RH  050%=      5-min Rain = 0
KMC1 120332Z 14006KT 28/17 A3007 RMK A01 T02800166  RH  050%=      5-min Rain = 0
KMC1 120333Z 14005KT 28/17 A3007 RMK A01 T02800167  RH  050%=      5-min Rain = 0
KMC1 120334Z 14005KT 28/17 A3007 RMK A01 T02790167  RH  050%=      5-min Rain = 0
KMC1 120335Z 14006KT 28/17 A3007 RMK A01 T02790167  RH  050%=      5-min Rain = 0
KMC1 120336Z 15005KT 28/17 A3007 RMK A01 T02790167  RH  050%=      5-min Rain = 0
KMC1 120337Z 14004KT 28/17 A3007 RMK A01 T02790167  RH  051%=      5-min Rain = 0
KMC1 120338Z 14005KT 28/17 A3007 RMK A01 T02790167  RH  051%=      5-min Rain = 0
KMC1 120339Z 14006KT 28/17 A3007 RMK A01 T02780167  RH  051%=      5-min Rain = 0
KMC1 120340Z 14005KT 28/17 A3007 RMK A01 T02780167  RH  051%=      5-min Rain = 0
KMC1 120341Z 14005KT 28/17 A3007 RMK A01 T02780167  RH  051%=      5-min Rain = 0
KMC1 120342Z 15005KT 28/17 A3007 RMK A01 T02780167  RH  051%=      5-min Rain = 0
KMC1 120343Z 14005KT 28/17 A3008 RMK A01 T02780167  RH  051%=      5-min Rain = 0
KMC1 120344Z 14005KT 28/17 A3008 RMK A01 T02780167  RH  051%=      5-min Rain = 0
KMC1 120345Z 14005KT 28/17 A3008 RMK A01 T02770167  RH  051%=      5-min Rain = 0
KMC1 120346Z 14005KT 28/17 A3008 RMK A01 T02780167  RH  051%=      5-min Rain = 0
KMC1 120347Z 14005KT 28/17 A3008 RMK A01 T02770167  RH  051%=      5-min Rain = 0
KMC1 120348Z 14004KT 28/17 A3008 RMK A01 T02770167  RH  051%=      5-min Rain = 0
KMC1 120349Z 14005KT 28/17 A3008 RMK A01 T02760167  RH  051%=      5-min Rain = 0
KMC1 120350Z 14004KT 28/17 A3008 RMK A01 T02750167  RH  052%=      5-min Rain = 0
KMC1 120351Z 14004KT 28/17 A3008 RMK A01 T02750168  RH  052%=      5-min Rain = 0
KMC1 120352Z 14006KT 27/17 A3008 RMK A01 T02740167  RH  052%=      5-min Rain = 0
KMC1 120353Z 13006KT 27/17 A3008 RMK A01 T02740167  RH  052%=      5-min Rain = 0
KMC1 120354Z 14006KT 27/17 A3008 RMK A01 T02740167  RH  052%=      5-min Rain = 0
KMC1 120355Z 14006KT 27/17 A3008 RMK A01 T02740167  RH  052%=      5-min Rain = 0
KMC1 120356Z 14007KT 27/17 A3008 RMK A01 T02740167  RH  052%=      5-min Rain = 0
KMC1 120357Z 15006KT 27/17 A3008 RMK A01 T02740167  RH  052%=      5-min Rain = 0
KMC1 120358Z 15006KT 27/17 A3008 RMK A01 T02740167  RH  052%=      5-min Rain = 0
KMC1 120359Z 15004KT 27/17 A3008 RMK A01 T02740168  RH  052%=      5-min Rain = 0
KMC1 120400Z 14004KT 27/17 A3008 RMK A01 T02740168  RH  052%=      5-min Rain = 0
KMC1 120401Z 15005KT 27/17 A3008 RMK A01 T02740168  RH  052%=      5-min Rain = 0
KMC1 120402Z 15004KT 27/17 A3008 RMK A01 T02740168  RH  052%=      5-min Rain = 0
KMC1 120403Z 14006KT 27/17 A3008 RMK A01 T02740168  RH  053%=      5-min Rain = 0
KMC1 120404Z 14006KT 27/17 A3008 RMK A01 T02740168  RH  053%=      5-min Rain = 0
KMC1 120405Z 15005KT 27/17 A3008 RMK A01 T02730169  RH  053%=      5-min Rain = 0
KMC1 120406Z 15005KT 27/17 A3008 RMK A01 T02730169  RH  053%=      5-min Rain = 0
KMC1 120407Z 15006KT 27/17 A3008 RMK A01 T02730169  RH  053%=      5-min Rain = 0
KMC1 120408Z 14005KT 27/17 A3008 RMK A01 T02730169  RH  053%=      5-min Rain = 0
KMC1 120409Z 14005KT 27/17 A3008 RMK A01 T02730170  RH  053%=      5-min Rain = 0
KMC1 120410Z 14006KT 27/17 A3008 RMK A01 T02720169  RH  053%=      5-min Rain = 0
KMC1 120411Z 14006KT 27/17 A3008 RMK A01 T02720169  RH  053%=      5-min Rain = 0
KMC1 120412Z 14007KT 27/17 A3008 RMK A01 T02720169  RH  053%=      5-min Rain = 0
KMC1 120413Z 14005KT 27/17 A3008 RMK A01 T02720170  RH  053%=      5-min Rain = 0
KMC1 120414Z 14005KT 27/17 A3008 RMK A01 T02720169  RH  053%=      5-min Rain = 0
KMC1 120415Z 14006KT 27/17 A3008 RMK A01 T02720170  RH  054%=      5-min Rain = 0
KMC1 120416Z 14005KT 27/17 A3008 RMK A01 T02720170  RH  054%=      5-min Rain = 0
KMC1 120417Z 14006KT 27/17 A3008 RMK A01 T02710170  RH  054%=      5-min Rain = 0
KMC1 120418Z 14006KT 27/17 A3008 RMK A01 T02710170  RH  054%=      5-min Rain = 0
KMC1 120419Z 14006KT 27/17 A3008 RMK A01 T02710170  RH  054%=      5-min Rain = 0
KMC1 120420Z 14005KT 27/17 A3008 RMK A01 T02710171  RH  054%=      5-min Rain = 0
KMC1 120421Z 14006KT 27/17 A3008 RMK A01 T02710171  RH  054%=      5-min Rain = 0
KMC1 120422Z 14006KT 27/17 A3008 RMK A01 T02700170  RH  054%=      5-min Rain = 0
KMC1 120423Z 14007KT 27/17 A3008 RMK A01 T02700171  RH  054%=      5-min Rain = 0
KMC1 120424Z 14005KT 27/17 A3008 RMK A01 T02700170  RH  054%=      5-min Rain = 0
KMC1 120425Z 14005KT 27/17 A3008 RMK A01 T02700171  RH  054%=      5-min Rain = 0
KMC1 120426Z 15005KT 27/17 A3009 RMK A01 T02700171  RH  055%=      5-min Rain = 0
KMC1 120427Z 14006KT 27/17 A3009 RMK A01 T02700171  RH  055%=      5-min Rain = 0
KMC1 120428Z 14007KT 27/17 A3009 RMK A01 T02700171  RH  055%=      5-min Rain = 0
KMC1 120429Z 14006KT 27/17 A3009 RMK A01 T02700170  RH  054%=      5-min Rain = 0
KMC1 120430Z 13006KT 27/17 A3009 RMK A01 T02700171  RH  055%=      5-min Rain = 0
KMC1 120431Z 14006KT 27/17 A3009 RMK A01 T02700171  RH  055%=      5-min Rain = 0
KMC1 120432Z 13006KT 27/17 A3009 RMK A01 T02700171  RH  055%=      5-min Rain = 0
KMC1 120433Z 14006KT 27/17 A3009 RMK A01 T02690172  RH  055%=      5-min Rain = 0
KMC1 120434Z 13006KT 27/17 A3009 RMK A01 T02690172  RH  055%=      5-min Rain = 0
KMC1 120435Z 13006KT 27/17 A3009 RMK A01 T02690171  RH  055%=      5-min Rain = 0
KMC1 120436Z 13006KT 27/17 A3009 RMK A01 T02690171  RH  055%=      5-min Rain = 0
KMC1 120437Z 13006KT 27/17 A3009 RMK A01 T02690171  RH  055%=      5-min Rain = 0
KMC1 120438Z 13006KT 27/17 A3009 RMK A01 T02690171  RH  055%=      5-min Rain = 0
KMC1 120439Z 13006KT 27/17 A3009 RMK A01 T02690172  RH  055%=      5-min Rain = 0
KMC1 120440Z 12006KT 27/17 A3009 RMK A01 T02690172  RH  055%=      5-min Rain = 0
KMC1 120441Z 13007KT 27/17 A3009 RMK A01 T02690172  RH  055%=      5-min Rain = 0
KMC1 120442Z 13006KT 27/17 A3009 RMK A01 T02680171  RH  055%=      5-min Rain = 0
KMC1 120443Z 13006KT 27/17 A3009 RMK A01 T02680172  RH  055%=      5-min Rain = 0
KMC1 120444Z 13007KT 27/17 A3009 RMK A01 T02680172  RH  055%=      5-min Rain = 0
KMC1 120445Z 14006KT 27/17 A3009 RMK A01 T02680172  RH  055%=      5-min Rain = 0
KMC1 120446Z 13005KT 27/17 A3009 RMK A01 T02680171  RH  055%=      5-min Rain = 0
KMC1 120447Z 14006KT 27/17 A3009 RMK A01 T02680171  RH  055%=      5-min Rain = 0
KMC1 120448Z 14007KT 27/17 A3009 RMK A01 T02680171  RH  055%=      5-min Rain = 0
KMC1 120449Z 13006KT 27/17 A3009 RMK A01 T02680171  RH  055%=      5-min Rain = 0
KMC1 120450Z 14007KT 27/17 A3009 RMK A01 T02680172  RH  056%=      5-min Rain = 0
KMC1 120451Z 14005KT 27/17 A3009 RMK A01 T02670172  RH  056%=      5-min Rain = 0
KMC1 120452Z 14006KT 27/17 A3009 RMK A01 T02670172  RH  056%=      5-min Rain = 0
KMC1 120453Z 14007KT 27/17 A3009 RMK A01 T02670172  RH  056%=      5-min Rain = 0
KMC1 120454Z 14008KT 27/17 A3009 RMK A01 T02670172  RH  056%=      5-min Rain = 0
KMC1 120455Z 14006KT 27/17 A3009 RMK A01 T02670171  RH  056%=      5-min Rain = 0
KMC1 120456Z 13005KT 27/17 A3009 RMK A01 T02670172  RH  056%=      5-min Rain = 0
KMC1 120457Z 14007KT 27/17 A3009 RMK A01 T02670172  RH  056%=      5-min Rain = 0
KMC1 120458Z 14006KT 27/17 A3009 RMK A01 T02660171  RH  056%=      5-min Rain = 0
KMC1 120459Z 14006KT 27/17 A3009 RMK A01 T02660172  RH  056%=      5-min Rain = 0
KMC1 120500Z 14006KT 27/17 A3009 RMK A01 T02660172  RH  056%=      5-min Rain = 0

Page generated in 0.0342 seconds.